<?xml version="1.0" encoding="UTF-8" standalone="no" ?>
<gpx xmlns="http://www.topografix.com/GPX/1/1" xmlns:xsi="http://www.w3.org/2001/XMLSchema-instance" xsi:schemaLocation="http://www.topografix.com/GPX/1/1 http://www.topografix.com/GPX/1/1/gpx.xsd" version="1.1" creator="VisuGPX - https://www.visugpx.com">
  <metadata>
    <name>Entre la buisse et Crossey</name>
    <desc><![CDATA[Un tour tranquille pour l'entrainement du week end. Deux petites cotes dans la foret et des sous bois magnifiques en automne.]]></desc>
  </metadata>
  <trk>
    <name><![CDATA[2011-11-06T14:57:36Z]]></name>
    <trkseg>
      <trkpt lat="45.34126" lon="5.62376">
        <ele>339.9633789</ele>
        <time>2011-11-06T14:57:36Z</time>
      </trkpt>
      <trkpt lat="45.34125" lon="5.62376">
        <ele>339.482666</ele>
        <time>2011-11-06T14:57:37Z</time>
      </trkpt>
      <trkpt lat="45.34125" lon="5.62374">
        <ele>339.0020752</ele>
        <time>2011-11-06T14:57:38Z</time>
      </trkpt>
      <trkpt lat="45.34119" lon="5.62356">
        <ele>336.1181641</ele>
        <time>2011-11-06T14:57:43Z</time>
      </trkpt>
      <trkpt lat="45.34115" lon="5.62343">
        <ele>334.6761475</ele>
        <time>2011-11-06T14:57:46Z</time>
      </trkpt>
      <trkpt lat="45.34113" lon="5.62339">
        <ele>334.1954346</ele>
        <time>2011-11-06T14:57:47Z</time>
      </trkpt>
      <trkpt lat="45.34108" lon="5.62325">
        <ele>331.7921143</ele>
        <time>2011-11-06T14:57:51Z</time>
      </trkpt>
      <trkpt lat="45.34103" lon="5.62316">
        <ele>330.3502197</ele>
        <time>2011-11-06T14:57:54Z</time>
      </trkpt>
      <trkpt lat="45.34102" lon="5.62312">
        <ele>329.8695068</ele>
        <time>2011-11-06T14:57:55Z</time>
      </trkpt>
      <trkpt lat="45.341" lon="5.62308">
        <ele>328.9083252</ele>
        <time>2011-11-06T14:57:56Z</time>
      </trkpt>
      <trkpt lat="45.34096" lon="5.62294">
        <ele>328.9083252</ele>
        <time>2011-11-06T14:58:00Z</time>
      </trkpt>
      <trkpt lat="45.34092" lon="5.62283">
        <ele>328.4276123</ele>
        <time>2011-11-06T14:58:03Z</time>
      </trkpt>
      <trkpt lat="45.34084" lon="5.62263">
        <ele>326.9855957</ele>
        <time>2011-11-06T14:58:09Z</time>
      </trkpt>
      <trkpt lat="45.34074" lon="5.6224">
        <ele>325.5435791</ele>
        <time>2011-11-06T14:58:16Z</time>
      </trkpt>
      <trkpt lat="45.34067" lon="5.6222">
        <ele>323.1403809</ele>
        <time>2011-11-06T14:58:22Z</time>
      </trkpt>
      <trkpt lat="45.34068" lon="5.62205">
        <ele>321.6983643</ele>
        <time>2011-11-06T14:58:26Z</time>
      </trkpt>
      <trkpt lat="45.3408" lon="5.62193">
        <ele>320.2563477</ele>
        <time>2011-11-06T14:58:31Z</time>
      </trkpt>
      <trkpt lat="45.34095" lon="5.62182">
        <ele>319.7756348</ele>
        <time>2011-11-06T14:58:37Z</time>
      </trkpt>
      <trkpt lat="45.34106" lon="5.62172">
        <ele>320.2563477</ele>
        <time>2011-11-06T14:58:42Z</time>
      </trkpt>
      <trkpt lat="45.34118" lon="5.62162">
        <ele>320.2563477</ele>
        <time>2011-11-06T14:58:47Z</time>
      </trkpt>
      <trkpt lat="45.34129" lon="5.62152">
        <ele>321.2177734</ele>
        <time>2011-11-06T14:58:52Z</time>
      </trkpt>
      <trkpt lat="45.34142" lon="5.62137">
        <ele>320.2563477</ele>
        <time>2011-11-06T14:58:58Z</time>
      </trkpt>
      <trkpt lat="45.34155" lon="5.62124">
        <ele>320.2563477</ele>
        <time>2011-11-06T14:59:04Z</time>
      </trkpt>
      <trkpt lat="45.34168" lon="5.62111">
        <ele>319.2950439</ele>
        <time>2011-11-06T14:59:10Z</time>
      </trkpt>
      <trkpt lat="45.34179" lon="5.621">
        <ele>319.2950439</ele>
        <time>2011-11-06T14:59:15Z</time>
      </trkpt>
      <trkpt lat="45.34192" lon="5.62086">
        <ele>319.2950439</ele>
        <time>2011-11-06T14:59:21Z</time>
      </trkpt>
      <trkpt lat="45.34208" lon="5.6207">
        <ele>318.8143311</ele>
        <time>2011-11-06T14:59:28Z</time>
      </trkpt>
      <trkpt lat="45.34219" lon="5.62058">
        <ele>318.8143311</ele>
        <time>2011-11-06T14:59:33Z</time>
      </trkpt>
      <trkpt lat="45.34235" lon="5.62042">
        <ele>318.8143311</ele>
        <time>2011-11-06T14:59:40Z</time>
      </trkpt>
      <trkpt lat="45.34248" lon="5.62023">
        <ele>317.8530273</ele>
        <time>2011-11-06T14:59:47Z</time>
      </trkpt>
      <trkpt lat="45.34257" lon="5.62008">
        <ele>316.8917236</ele>
        <time>2011-11-06T14:59:52Z</time>
      </trkpt>
      <trkpt lat="45.34269" lon="5.61993">
        <ele>316.8917236</ele>
        <time>2011-11-06T14:59:58Z</time>
      </trkpt>
      <trkpt lat="45.34283" lon="5.61975">
        <ele>316.4110107</ele>
        <time>2011-11-06T15:00:05Z</time>
      </trkpt>
      <trkpt lat="45.34296" lon="5.61959">
        <ele>315.9304199</ele>
        <time>2011-11-06T15:00:11Z</time>
      </trkpt>
      <trkpt lat="45.34307" lon="5.61946">
        <ele>315.9304199</ele>
        <time>2011-11-06T15:00:16Z</time>
      </trkpt>
      <trkpt lat="45.34323" lon="5.61924">
        <ele>315.9304199</ele>
        <time>2011-11-06T15:00:24Z</time>
      </trkpt>
      <trkpt lat="45.34338" lon="5.61906">
        <ele>315.9304199</ele>
        <time>2011-11-06T15:00:31Z</time>
      </trkpt>
      <trkpt lat="45.3435" lon="5.6189">
        <ele>315.4498291</ele>
        <time>2011-11-06T15:00:37Z</time>
      </trkpt>
      <trkpt lat="45.34361" lon="5.61877">
        <ele>315.4498291</ele>
        <time>2011-11-06T15:00:42Z</time>
      </trkpt>
      <trkpt lat="45.34362" lon="5.61874">
        <ele>314.9691162</ele>
        <time>2011-11-06T15:00:43Z</time>
      </trkpt>
      <trkpt lat="45.34378" lon="5.61856">
        <ele>314.4884033</ele>
        <time>2011-11-06T15:00:50Z</time>
      </trkpt>
      <trkpt lat="45.34391" lon="5.61841">
        <ele>314.4884033</ele>
        <time>2011-11-06T15:00:56Z</time>
      </trkpt>
      <trkpt lat="45.34406" lon="5.61824">
        <ele>314.0078125</ele>
        <time>2011-11-06T15:01:03Z</time>
      </trkpt>
      <trkpt lat="45.34419" lon="5.61808">
        <ele>314.0078125</ele>
        <time>2011-11-06T15:01:09Z</time>
      </trkpt>
      <trkpt lat="45.34429" lon="5.61795">
        <ele>313.5272217</ele>
        <time>2011-11-06T15:01:14Z</time>
      </trkpt>
      <trkpt lat="45.34442" lon="5.61779">
        <ele>313.0465088</ele>
        <time>2011-11-06T15:01:20Z</time>
      </trkpt>
      <trkpt lat="45.34456" lon="5.61764">
        <ele>312.5657959</ele>
        <time>2011-11-06T15:01:27Z</time>
      </trkpt>
      <trkpt lat="45.34465" lon="5.61751">
        <ele>312.5657959</ele>
        <time>2011-11-06T15:01:32Z</time>
      </trkpt>
      <trkpt lat="45.34477" lon="5.61735">
        <ele>312.0852051</ele>
        <time>2011-11-06T15:01:38Z</time>
      </trkpt>
      <trkpt lat="45.34489" lon="5.61718">
        <ele>312.0852051</ele>
        <time>2011-11-06T15:01:44Z</time>
      </trkpt>
      <trkpt lat="45.34503" lon="5.61701">
        <ele>312.5657959</ele>
        <time>2011-11-06T15:01:51Z</time>
      </trkpt>
      <trkpt lat="45.34515" lon="5.61685">
        <ele>312.5657959</ele>
        <time>2011-11-06T15:01:57Z</time>
      </trkpt>
      <trkpt lat="45.34525" lon="5.61669">
        <ele>312.0852051</ele>
        <time>2011-11-06T15:02:03Z</time>
      </trkpt>
      <trkpt lat="45.34535" lon="5.61651">
        <ele>312.5657959</ele>
        <time>2011-11-06T15:02:09Z</time>
      </trkpt>
      <trkpt lat="45.34545" lon="5.61632">
        <ele>313.0465088</ele>
        <time>2011-11-06T15:02:15Z</time>
      </trkpt>
      <trkpt lat="45.34557" lon="5.61611">
        <ele>313.5272217</ele>
        <time>2011-11-06T15:02:22Z</time>
      </trkpt>
      <trkpt lat="45.34567" lon="5.61592">
        <ele>314.0078125</ele>
        <time>2011-11-06T15:02:28Z</time>
      </trkpt>
      <trkpt lat="45.34577" lon="5.61573">
        <ele>314.0078125</ele>
        <time>2011-11-06T15:02:34Z</time>
      </trkpt>
      <trkpt lat="45.34586" lon="5.61558">
        <ele>314.0078125</ele>
        <time>2011-11-06T15:02:39Z</time>
      </trkpt>
      <trkpt lat="45.34598" lon="5.61536">
        <ele>313.5272217</ele>
        <time>2011-11-06T15:02:46Z</time>
      </trkpt>
      <trkpt lat="45.3461" lon="5.61515">
        <ele>313.0465088</ele>
        <time>2011-11-06T15:02:53Z</time>
      </trkpt>
      <trkpt lat="45.34616" lon="5.61505">
        <ele>313.0465088</ele>
        <time>2011-11-06T15:02:56Z</time>
      </trkpt>
      <trkpt lat="45.34624" lon="5.61488">
        <ele>311.6044922</ele>
        <time>2011-11-06T15:03:01Z</time>
      </trkpt>
      <trkpt lat="45.34634" lon="5.61475">
        <ele>312.0852051</ele>
        <time>2011-11-06T15:03:06Z</time>
      </trkpt>
      <trkpt lat="45.34644" lon="5.61456">
        <ele>311.1237793</ele>
        <time>2011-11-06T15:03:12Z</time>
      </trkpt>
      <trkpt lat="45.34648" lon="5.61449">
        <ele>310.6430664</ele>
        <time>2011-11-06T15:03:14Z</time>
      </trkpt>
      <trkpt lat="45.34659" lon="5.61432">
        <ele>311.1237793</ele>
        <time>2011-11-06T15:03:20Z</time>
      </trkpt>
      <trkpt lat="45.3467" lon="5.61414">
        <ele>311.1237793</ele>
        <time>2011-11-06T15:03:26Z</time>
      </trkpt>
      <trkpt lat="45.34677" lon="5.61397">
        <ele>311.6044922</ele>
        <time>2011-11-06T15:03:31Z</time>
      </trkpt>
      <trkpt lat="45.34688" lon="5.61378">
        <ele>311.6044922</ele>
        <time>2011-11-06T15:03:37Z</time>
      </trkpt>
      <trkpt lat="45.34696" lon="5.61363">
        <ele>311.6044922</ele>
        <time>2011-11-06T15:03:41Z</time>
      </trkpt>
      <trkpt lat="45.34704" lon="5.61349">
        <ele>310.6430664</ele>
        <time>2011-11-06T15:03:46Z</time>
      </trkpt>
      <trkpt lat="45.34715" lon="5.6133">
        <ele>308.720459</ele>
        <time>2011-11-06T15:03:52Z</time>
      </trkpt>
      <trkpt lat="45.34727" lon="5.61314">
        <ele>308.720459</ele>
        <time>2011-11-06T15:03:58Z</time>
      </trkpt>
      <trkpt lat="45.34738" lon="5.61296">
        <ele>308.2398682</ele>
        <time>2011-11-06T15:04:04Z</time>
      </trkpt>
      <trkpt lat="45.34741" lon="5.6129">
        <ele>308.2398682</ele>
        <time>2011-11-06T15:04:06Z</time>
      </trkpt>
      <trkpt lat="45.3475" lon="5.61276">
        <ele>307.7592773</ele>
        <time>2011-11-06T15:04:11Z</time>
      </trkpt>
      <trkpt lat="45.3476" lon="5.6126">
        <ele>307.7592773</ele>
        <time>2011-11-06T15:04:16Z</time>
      </trkpt>
      <trkpt lat="45.34769" lon="5.6125">
        <ele>307.2785645</ele>
        <time>2011-11-06T15:04:20Z</time>
      </trkpt>
      <trkpt lat="45.34775" lon="5.61242">
        <ele>307.2785645</ele>
        <time>2011-11-06T15:04:23Z</time>
      </trkpt>
      <trkpt lat="45.34786" lon="5.61229">
        <ele>307.7592773</ele>
        <time>2011-11-06T15:04:28Z</time>
      </trkpt>
      <trkpt lat="45.34802" lon="5.61212">
        <ele>308.720459</ele>
        <time>2011-11-06T15:04:35Z</time>
      </trkpt>
      <trkpt lat="45.34813" lon="5.61202">
        <ele>308.720459</ele>
        <time>2011-11-06T15:04:40Z</time>
      </trkpt>
      <trkpt lat="45.34828" lon="5.6119">
        <ele>309.2011719</ele>
        <time>2011-11-06T15:04:46Z</time>
      </trkpt>
      <trkpt lat="45.3484" lon="5.61181">
        <ele>309.2011719</ele>
        <time>2011-11-06T15:04:51Z</time>
      </trkpt>
      <trkpt lat="45.34851" lon="5.61171">
        <ele>309.2011719</ele>
        <time>2011-11-06T15:04:56Z</time>
      </trkpt>
      <trkpt lat="45.34856" lon="5.61166">
        <ele>309.2011719</ele>
        <time>2011-11-06T15:04:58Z</time>
      </trkpt>
      <trkpt lat="45.34864" lon="5.61155">
        <ele>309.2011719</ele>
        <time>2011-11-06T15:05:02Z</time>
      </trkpt>
      <trkpt lat="45.34877" lon="5.61141">
        <ele>308.2398682</ele>
        <time>2011-11-06T15:05:08Z</time>
      </trkpt>
      <trkpt lat="45.34888" lon="5.61129">
        <ele>308.2398682</ele>
        <time>2011-11-06T15:05:13Z</time>
      </trkpt>
      <trkpt lat="45.34902" lon="5.61115">
        <ele>307.7592773</ele>
        <time>2011-11-06T15:05:19Z</time>
      </trkpt>
      <trkpt lat="45.34916" lon="5.61103">
        <ele>308.2398682</ele>
        <time>2011-11-06T15:05:25Z</time>
      </trkpt>
      <trkpt lat="45.34928" lon="5.61092">
        <ele>307.7592773</ele>
        <time>2011-11-06T15:05:30Z</time>
      </trkpt>
      <trkpt lat="45.34943" lon="5.61079">
        <ele>307.2785645</ele>
        <time>2011-11-06T15:05:36Z</time>
      </trkpt>
      <trkpt lat="45.34956" lon="5.61069">
        <ele>307.2785645</ele>
        <time>2011-11-06T15:05:41Z</time>
      </trkpt>
      <trkpt lat="45.34966" lon="5.61062">
        <ele>308.2398682</ele>
        <time>2011-11-06T15:05:45Z</time>
      </trkpt>
      <trkpt lat="45.34983" lon="5.61049">
        <ele>306.7978516</ele>
        <time>2011-11-06T15:05:52Z</time>
      </trkpt>
      <trkpt lat="45.34996" lon="5.61038">
        <ele>305.8366699</ele>
        <time>2011-11-06T15:05:58Z</time>
      </trkpt>
      <trkpt lat="45.35006" lon="5.61024">
        <ele>304.8752441</ele>
        <time>2011-11-06T15:06:03Z</time>
      </trkpt>
      <trkpt lat="45.35015" lon="5.61015">
        <ele>305.355957</ele>
        <time>2011-11-06T15:06:07Z</time>
      </trkpt>
      <trkpt lat="45.35028" lon="5.61">
        <ele>304.8752441</ele>
        <time>2011-11-06T15:06:13Z</time>
      </trkpt>
      <trkpt lat="45.35037" lon="5.60991">
        <ele>304.8752441</ele>
        <time>2011-11-06T15:06:17Z</time>
      </trkpt>
      <trkpt lat="45.35047" lon="5.60986">
        <ele>305.8366699</ele>
        <time>2011-11-06T15:06:21Z</time>
      </trkpt>
      <trkpt lat="45.35049" lon="5.60984">
        <ele>305.8366699</ele>
        <time>2011-11-06T15:06:22Z</time>
      </trkpt>
      <trkpt lat="45.35063" lon="5.60971">
        <ele>307.2785645</ele>
        <time>2011-11-06T15:06:28Z</time>
      </trkpt>
      <trkpt lat="45.35074" lon="5.60961">
        <ele>307.2785645</ele>
        <time>2011-11-06T15:06:33Z</time>
      </trkpt>
      <trkpt lat="45.35088" lon="5.60949">
        <ele>306.7978516</ele>
        <time>2011-11-06T15:06:39Z</time>
      </trkpt>
      <trkpt lat="45.3509" lon="5.60947">
        <ele>306.3172607</ele>
        <time>2011-11-06T15:06:40Z</time>
      </trkpt>
      <trkpt lat="45.35107" lon="5.60943">
        <ele>307.7592773</ele>
        <time>2011-11-06T15:06:46Z</time>
      </trkpt>
      <trkpt lat="45.35122" lon="5.60935">
        <ele>308.2398682</ele>
        <time>2011-11-06T15:06:52Z</time>
      </trkpt>
      <trkpt lat="45.35136" lon="5.60934">
        <ele>308.2398682</ele>
        <time>2011-11-06T15:06:57Z</time>
      </trkpt>
      <trkpt lat="45.35144" lon="5.60931">
        <ele>308.2398682</ele>
        <time>2011-11-06T15:07:00Z</time>
      </trkpt>
      <trkpt lat="45.35158" lon="5.6093">
        <ele>307.7592773</ele>
        <time>2011-11-06T15:07:05Z</time>
      </trkpt>
      <trkpt lat="45.35171" lon="5.60926">
        <ele>306.3172607</ele>
        <time>2011-11-06T15:07:10Z</time>
      </trkpt>
      <trkpt lat="45.35176" lon="5.60922">
        <ele>305.8366699</ele>
        <time>2011-11-06T15:07:12Z</time>
      </trkpt>
      <trkpt lat="45.35192" lon="5.60908">
        <ele>305.355957</ele>
        <time>2011-11-06T15:07:19Z</time>
      </trkpt>
      <trkpt lat="45.35199" lon="5.60903">
        <ele>304.8752441</ele>
        <time>2011-11-06T15:07:22Z</time>
      </trkpt>
      <trkpt lat="45.35208" lon="5.60912">
        <ele>306.7978516</ele>
        <time>2011-11-06T15:07:27Z</time>
      </trkpt>
      <trkpt lat="45.35211" lon="5.60937">
        <ele>308.2398682</ele>
        <time>2011-11-06T15:07:34Z</time>
      </trkpt>
      <trkpt lat="45.35214" lon="5.60955">
        <ele>309.2011719</ele>
        <time>2011-11-06T15:07:39Z</time>
      </trkpt>
      <trkpt lat="45.35215" lon="5.60977">
        <ele>310.6430664</ele>
        <time>2011-11-06T15:07:45Z</time>
      </trkpt>
      <trkpt lat="45.35216" lon="5.60999">
        <ele>313.0465088</ele>
        <time>2011-11-06T15:07:51Z</time>
      </trkpt>
      <trkpt lat="45.35216" lon="5.61016">
        <ele>314.4884033</ele>
        <time>2011-11-06T15:07:56Z</time>
      </trkpt>
      <trkpt lat="45.35216" lon="5.61034">
        <ele>315.4498291</ele>
        <time>2011-11-06T15:08:01Z</time>
      </trkpt>
      <trkpt lat="45.35216" lon="5.61052">
        <ele>317.3724365</ele>
        <time>2011-11-06T15:08:06Z</time>
      </trkpt>
      <trkpt lat="45.35216" lon="5.6107">
        <ele>317.3724365</ele>
        <time>2011-11-06T15:08:11Z</time>
      </trkpt>
      <trkpt lat="45.35216" lon="5.61089">
        <ele>317.3724365</ele>
        <time>2011-11-06T15:08:16Z</time>
      </trkpt>
      <trkpt lat="45.35216" lon="5.61105">
        <ele>316.8917236</ele>
        <time>2011-11-06T15:08:20Z</time>
      </trkpt>
      <trkpt lat="45.35215" lon="5.61131">
        <ele>315.4498291</ele>
        <time>2011-11-06T15:08:27Z</time>
      </trkpt>
      <trkpt lat="45.35214" lon="5.61154">
        <ele>315.4498291</ele>
        <time>2011-11-06T15:08:33Z</time>
      </trkpt>
      <trkpt lat="45.35215" lon="5.61173">
        <ele>316.4110107</ele>
        <time>2011-11-06T15:08:38Z</time>
      </trkpt>
      <trkpt lat="45.35218" lon="5.61194">
        <ele>314.4884033</ele>
        <time>2011-11-06T15:08:44Z</time>
      </trkpt>
      <trkpt lat="45.35222" lon="5.61217">
        <ele>314.4884033</ele>
        <time>2011-11-06T15:08:50Z</time>
      </trkpt>
      <trkpt lat="45.35223" lon="5.61235">
        <ele>314.9691162</ele>
        <time>2011-11-06T15:08:55Z</time>
      </trkpt>
      <trkpt lat="45.35225" lon="5.61253">
        <ele>314.4884033</ele>
        <time>2011-11-06T15:09:00Z</time>
      </trkpt>
      <trkpt lat="45.35226" lon="5.61272">
        <ele>314.4884033</ele>
        <time>2011-11-06T15:09:05Z</time>
      </trkpt>
      <trkpt lat="45.35223" lon="5.61293">
        <ele>315.4498291</ele>
        <time>2011-11-06T15:09:11Z</time>
      </trkpt>
      <trkpt lat="45.35221" lon="5.61314">
        <ele>316.4110107</ele>
        <time>2011-11-06T15:09:17Z</time>
      </trkpt>
      <trkpt lat="45.3522" lon="5.61328">
        <ele>316.8917236</ele>
        <time>2011-11-06T15:09:22Z</time>
      </trkpt>
      <trkpt lat="45.35221" lon="5.61336">
        <ele>317.8530273</ele>
        <time>2011-11-06T15:09:25Z</time>
      </trkpt>
      <trkpt lat="45.35224" lon="5.61354">
        <ele>319.2950439</ele>
        <time>2011-11-06T15:09:31Z</time>
      </trkpt>
      <trkpt lat="45.35225" lon="5.61373">
        <ele>322.1789551</ele>
        <time>2011-11-06T15:09:37Z</time>
      </trkpt>
      <trkpt lat="45.35226" lon="5.61393">
        <ele>325.0629883</ele>
        <time>2011-11-06T15:09:44Z</time>
      </trkpt>
      <trkpt lat="45.35224" lon="5.61405">
        <ele>326.0241699</ele>
        <time>2011-11-06T15:09:48Z</time>
      </trkpt>
      <trkpt lat="45.35223" lon="5.61421">
        <ele>326.5048828</ele>
        <time>2011-11-06T15:09:54Z</time>
      </trkpt>
      <trkpt lat="45.35221" lon="5.61438">
        <ele>328.9083252</ele>
        <time>2011-11-06T15:10:00Z</time>
      </trkpt>
      <trkpt lat="45.35216" lon="5.61455">
        <ele>332.2728271</ele>
        <time>2011-11-06T15:10:06Z</time>
      </trkpt>
      <trkpt lat="45.3521" lon="5.61474">
        <ele>332.75354</ele>
        <time>2011-11-06T15:10:13Z</time>
      </trkpt>
      <trkpt lat="45.35206" lon="5.61492">
        <ele>335.1567383</ele>
        <time>2011-11-06T15:10:19Z</time>
      </trkpt>
      <trkpt lat="45.35202" lon="5.61507">
        <ele>337.5600586</ele>
        <time>2011-11-06T15:10:24Z</time>
      </trkpt>
      <trkpt lat="45.35198" lon="5.61527">
        <ele>338.5214844</ele>
        <time>2011-11-06T15:10:30Z</time>
      </trkpt>
      <trkpt lat="45.35193" lon="5.61546">
        <ele>339.482666</ele>
        <time>2011-11-06T15:10:36Z</time>
      </trkpt>
      <trkpt lat="45.35185" lon="5.61564">
        <ele>337.5600586</ele>
        <time>2011-11-06T15:10:42Z</time>
      </trkpt>
      <trkpt lat="45.35173" lon="5.61581">
        <ele>335.1567383</ele>
        <time>2011-11-06T15:10:49Z</time>
      </trkpt>
      <trkpt lat="45.35168" lon="5.61587">
        <ele>335.1567383</ele>
        <time>2011-11-06T15:10:52Z</time>
      </trkpt>
      <trkpt lat="45.35165" lon="5.61591">
        <ele>335.1567383</ele>
        <time>2011-11-06T15:10:54Z</time>
      </trkpt>
      <trkpt lat="45.35159" lon="5.61597">
        <ele>334.6761475</ele>
        <time>2011-11-06T15:10:57Z</time>
      </trkpt>
      <trkpt lat="45.35147" lon="5.61611">
        <ele>335.1567383</ele>
        <time>2011-11-06T15:11:04Z</time>
      </trkpt>
      <trkpt lat="45.3514" lon="5.61623">
        <ele>336.1181641</ele>
        <time>2011-11-06T15:11:09Z</time>
      </trkpt>
      <trkpt lat="45.35133" lon="5.61635">
        <ele>335.6373291</ele>
        <time>2011-11-06T15:11:14Z</time>
      </trkpt>
      <trkpt lat="45.35125" lon="5.61648">
        <ele>336.1181641</ele>
        <time>2011-11-06T15:11:20Z</time>
      </trkpt>
      <trkpt lat="45.35116" lon="5.6166">
        <ele>336.1181641</ele>
        <time>2011-11-06T15:11:26Z</time>
      </trkpt>
      <trkpt lat="45.3511" lon="5.61669">
        <ele>337.5600586</ele>
        <time>2011-11-06T15:11:30Z</time>
      </trkpt>
      <trkpt lat="45.35103" lon="5.61681">
        <ele>338.0407715</ele>
        <time>2011-11-06T15:11:35Z</time>
      </trkpt>
      <trkpt lat="45.35095" lon="5.61696">
        <ele>339.482666</ele>
        <time>2011-11-06T15:11:41Z</time>
      </trkpt>
      <trkpt lat="45.35086" lon="5.61711">
        <ele>340.4440918</ele>
        <time>2011-11-06T15:11:47Z</time>
      </trkpt>
      <trkpt lat="45.35077" lon="5.61727">
        <ele>341.4052734</ele>
        <time>2011-11-06T15:11:54Z</time>
      </trkpt>
      <trkpt lat="45.35071" lon="5.61742">
        <ele>344.2894287</ele>
        <time>2011-11-06T15:12:00Z</time>
      </trkpt>
      <trkpt lat="45.35063" lon="5.61757">
        <ele>347.1732178</ele>
        <time>2011-11-06T15:12:06Z</time>
      </trkpt>
      <trkpt lat="45.35061" lon="5.61767">
        <ele>348.6152344</ele>
        <time>2011-11-06T15:12:09Z</time>
      </trkpt>
      <trkpt lat="45.35059" lon="5.61779">
        <ele>350.057251</ele>
        <time>2011-11-06T15:12:13Z</time>
      </trkpt>
      <trkpt lat="45.35058" lon="5.61782">
        <ele>350.5378418</ele>
        <time>2011-11-06T15:12:14Z</time>
      </trkpt>
      <trkpt lat="45.35054" lon="5.61799">
        <ele>350.057251</ele>
        <time>2011-11-06T15:12:20Z</time>
      </trkpt>
      <trkpt lat="45.35051" lon="5.61815">
        <ele>351.4991455</ele>
        <time>2011-11-06T15:12:26Z</time>
      </trkpt>
      <trkpt lat="45.35049" lon="5.61823">
        <ele>351.4991455</ele>
        <time>2011-11-06T15:12:29Z</time>
      </trkpt>
      <trkpt lat="45.35047" lon="5.61829">
        <ele>352.4605713</ele>
        <time>2011-11-06T15:12:31Z</time>
      </trkpt>
      <trkpt lat="45.35046" lon="5.61832">
        <ele>351.9798584</ele>
        <time>2011-11-06T15:12:32Z</time>
      </trkpt>
      <trkpt lat="45.35043" lon="5.61842">
        <ele>352.9411621</ele>
        <time>2011-11-06T15:12:36Z</time>
      </trkpt>
      <trkpt lat="45.35038" lon="5.61858">
        <ele>354.8637695</ele>
        <time>2011-11-06T15:12:42Z</time>
      </trkpt>
      <trkpt lat="45.35031" lon="5.61872">
        <ele>357.2670898</ele>
        <time>2011-11-06T15:12:48Z</time>
      </trkpt>
      <trkpt lat="45.35025" lon="5.61882">
        <ele>359.1896973</ele>
        <time>2011-11-06T15:12:53Z</time>
      </trkpt>
      <trkpt lat="45.35018" lon="5.61892">
        <ele>360.6317139</ele>
        <time>2011-11-06T15:12:59Z</time>
      </trkpt>
      <trkpt lat="45.35009" lon="5.61905">
        <ele>362.0737305</ele>
        <time>2011-11-06T15:13:06Z</time>
      </trkpt>
      <trkpt lat="45.35002" lon="5.61917">
        <ele>362.0737305</ele>
        <time>2011-11-06T15:13:12Z</time>
      </trkpt>
      <trkpt lat="45.34994" lon="5.61932">
        <ele>360.6317139</ele>
        <time>2011-11-06T15:13:18Z</time>
      </trkpt>
      <trkpt lat="45.3499" lon="5.61944">
        <ele>360.151123</ele>
        <time>2011-11-06T15:13:23Z</time>
      </trkpt>
      <trkpt lat="45.34984" lon="5.61959">
        <ele>360.151123</ele>
        <time>2011-11-06T15:13:29Z</time>
      </trkpt>
      <trkpt lat="45.34974" lon="5.61976">
        <ele>361.1124268</ele>
        <time>2011-11-06T15:13:36Z</time>
      </trkpt>
      <trkpt lat="45.34966" lon="5.61989">
        <ele>362.5543213</ele>
        <time>2011-11-06T15:13:41Z</time>
      </trkpt>
      <trkpt lat="45.34959" lon="5.61999">
        <ele>361.5931396</ele>
        <time>2011-11-06T15:13:46Z</time>
      </trkpt>
      <trkpt lat="45.3495" lon="5.62009">
        <ele>362.0737305</ele>
        <time>2011-11-06T15:13:51Z</time>
      </trkpt>
      <trkpt lat="45.34938" lon="5.62022">
        <ele>363.0350342</ele>
        <time>2011-11-06T15:13:57Z</time>
      </trkpt>
      <trkpt lat="45.34931" lon="5.6203">
        <ele>363.9963379</ele>
        <time>2011-11-06T15:14:01Z</time>
      </trkpt>
      <trkpt lat="45.3492" lon="5.62042">
        <ele>364.4769287</ele>
        <time>2011-11-06T15:14:07Z</time>
      </trkpt>
      <trkpt lat="45.34908" lon="5.62054">
        <ele>365.9189453</ele>
        <time>2011-11-06T15:14:13Z</time>
      </trkpt>
      <trkpt lat="45.34897" lon="5.62065">
        <ele>366.3995361</ele>
        <time>2011-11-06T15:14:18Z</time>
      </trkpt>
      <trkpt lat="45.34883" lon="5.62079">
        <ele>366.880249</ele>
        <time>2011-11-06T15:14:25Z</time>
      </trkpt>
      <trkpt lat="45.34876" lon="5.62086">
        <ele>366.880249</ele>
        <time>2011-11-06T15:14:28Z</time>
      </trkpt>
      <trkpt lat="45.34863" lon="5.621">
        <ele>366.880249</ele>
        <time>2011-11-06T15:14:35Z</time>
      </trkpt>
      <trkpt lat="45.34849" lon="5.62116">
        <ele>367.3609619</ele>
        <time>2011-11-06T15:14:42Z</time>
      </trkpt>
      <trkpt lat="45.34837" lon="5.6213">
        <ele>368.3222656</ele>
        <time>2011-11-06T15:14:48Z</time>
      </trkpt>
      <trkpt lat="45.34823" lon="5.62144">
        <ele>368.8029785</ele>
        <time>2011-11-06T15:14:55Z</time>
      </trkpt>
      <trkpt lat="45.34814" lon="5.62154">
        <ele>369.7642822</ele>
        <time>2011-11-06T15:15:00Z</time>
      </trkpt>
      <trkpt lat="45.348" lon="5.62164">
        <ele>369.7642822</ele>
        <time>2011-11-06T15:15:06Z</time>
      </trkpt>
      <trkpt lat="45.34786" lon="5.62175">
        <ele>370.7255859</ele>
        <time>2011-11-06T15:15:12Z</time>
      </trkpt>
      <trkpt lat="45.34773" lon="5.62186">
        <ele>371.6868896</ele>
        <time>2011-11-06T15:15:18Z</time>
      </trkpt>
      <trkpt lat="45.3476" lon="5.62195">
        <ele>372.6481934</ele>
        <time>2011-11-06T15:15:24Z</time>
      </trkpt>
      <trkpt lat="45.34745" lon="5.62206">
        <ele>374.0900879</ele>
        <time>2011-11-06T15:15:31Z</time>
      </trkpt>
      <trkpt lat="45.34739" lon="5.62218">
        <ele>376.4935303</ele>
        <time>2011-11-06T15:15:36Z</time>
      </trkpt>
      <trkpt lat="45.34738" lon="5.62236">
        <ele>378.8968506</ele>
        <time>2011-11-06T15:15:41Z</time>
      </trkpt>
      <trkpt lat="45.34737" lon="5.62248">
        <ele>379.3774414</ele>
        <time>2011-11-06T15:15:45Z</time>
      </trkpt>
      <trkpt lat="45.34737" lon="5.62263">
        <ele>382.7420654</ele>
        <time>2011-11-06T15:15:50Z</time>
      </trkpt>
      <trkpt lat="45.34735" lon="5.62285">
        <ele>386.1066895</ele>
        <time>2011-11-06T15:15:57Z</time>
      </trkpt>
      <trkpt lat="45.34735" lon="5.623">
        <ele>388.9906006</ele>
        <time>2011-11-06T15:16:02Z</time>
      </trkpt>
      <trkpt lat="45.3474" lon="5.62308">
        <ele>388.0292969</ele>
        <time>2011-11-06T15:16:06Z</time>
      </trkpt>
      <trkpt lat="45.34735" lon="5.62319">
        <ele>388.9906006</ele>
        <time>2011-11-06T15:16:11Z</time>
      </trkpt>
      <trkpt lat="45.34723" lon="5.62325">
        <ele>388.5100098</ele>
        <time>2011-11-06T15:16:17Z</time>
      </trkpt>
      <trkpt lat="45.34712" lon="5.62336">
        <ele>389.4711914</ele>
        <time>2011-11-06T15:16:23Z</time>
      </trkpt>
      <trkpt lat="45.34702" lon="5.62342">
        <ele>389.9519043</ele>
        <time>2011-11-06T15:16:27Z</time>
      </trkpt>
      <trkpt lat="45.34691" lon="5.6235">
        <ele>390.913208</ele>
        <time>2011-11-06T15:16:32Z</time>
      </trkpt>
      <trkpt lat="45.34682" lon="5.62357">
        <ele>390.913208</ele>
        <time>2011-11-06T15:16:37Z</time>
      </trkpt>
      <trkpt lat="45.34672" lon="5.62363">
        <ele>392.3553467</ele>
        <time>2011-11-06T15:16:42Z</time>
      </trkpt>
      <trkpt lat="45.34662" lon="5.62367">
        <ele>393.3165283</ele>
        <time>2011-11-06T15:16:47Z</time>
      </trkpt>
      <trkpt lat="45.3465" lon="5.6237">
        <ele>393.3165283</ele>
        <time>2011-11-06T15:16:53Z</time>
      </trkpt>
      <trkpt lat="45.34644" lon="5.62372">
        <ele>394.2779541</ele>
        <time>2011-11-06T15:16:56Z</time>
      </trkpt>
      <trkpt lat="45.34631" lon="5.62378">
        <ele>395.7198486</ele>
        <time>2011-11-06T15:17:02Z</time>
      </trkpt>
      <trkpt lat="45.34619" lon="5.62383">
        <ele>396.2005615</ele>
        <time>2011-11-06T15:17:07Z</time>
      </trkpt>
      <trkpt lat="45.34608" lon="5.6239">
        <ele>396.2005615</ele>
        <time>2011-11-06T15:17:13Z</time>
      </trkpt>
      <trkpt lat="45.34598" lon="5.62401">
        <ele>396.6811523</ele>
        <time>2011-11-06T15:17:19Z</time>
      </trkpt>
      <trkpt lat="45.34588" lon="5.62411">
        <ele>398.1231689</ele>
        <time>2011-11-06T15:17:25Z</time>
      </trkpt>
      <trkpt lat="45.34578" lon="5.6242">
        <ele>400.0458984</ele>
        <time>2011-11-06T15:17:31Z</time>
      </trkpt>
      <trkpt lat="45.34567" lon="5.6243">
        <ele>402.4490967</ele>
        <time>2011-11-06T15:17:37Z</time>
      </trkpt>
      <trkpt lat="45.34557" lon="5.62439">
        <ele>405.8137207</ele>
        <time>2011-11-06T15:17:43Z</time>
      </trkpt>
      <trkpt lat="45.34548" lon="5.62449">
        <ele>408.217041</ele>
        <time>2011-11-06T15:17:49Z</time>
      </trkpt>
      <trkpt lat="45.34539" lon="5.62457">
        <ele>408.6976318</ele>
        <time>2011-11-06T15:17:55Z</time>
      </trkpt>
      <trkpt lat="45.34531" lon="5.62467">
        <ele>409.1783447</ele>
        <time>2011-11-06T15:18:01Z</time>
      </trkpt>
      <trkpt lat="45.34526" lon="5.62482">
        <ele>411.1009521</ele>
        <time>2011-11-06T15:18:07Z</time>
      </trkpt>
      <trkpt lat="45.34521" lon="5.62496">
        <ele>412.0622559</ele>
        <time>2011-11-06T15:18:14Z</time>
      </trkpt>
      <trkpt lat="45.34517" lon="5.62511">
        <ele>413.9848633</ele>
        <time>2011-11-06T15:18:20Z</time>
      </trkpt>
      <trkpt lat="45.34512" lon="5.62526">
        <ele>419.2722168</ele>
        <time>2011-11-06T15:18:26Z</time>
      </trkpt>
      <trkpt lat="45.34505" lon="5.62536">
        <ele>420.2333984</ele>
        <time>2011-11-06T15:18:31Z</time>
      </trkpt>
      <trkpt lat="45.34496" lon="5.62547">
        <ele>420.2333984</ele>
        <time>2011-11-06T15:18:37Z</time>
      </trkpt>
      <trkpt lat="45.34487" lon="5.62556">
        <ele>420.2333984</ele>
        <time>2011-11-06T15:18:43Z</time>
      </trkpt>
      <trkpt lat="45.34478" lon="5.62563">
        <ele>420.7141113</ele>
        <time>2011-11-06T15:18:49Z</time>
      </trkpt>
      <trkpt lat="45.34465" lon="5.62571">
        <ele>420.7141113</ele>
        <time>2011-11-06T15:18:57Z</time>
      </trkpt>
      <trkpt lat="45.34455" lon="5.62576">
        <ele>422.6367188</ele>
        <time>2011-11-06T15:19:03Z</time>
      </trkpt>
      <trkpt lat="45.34444" lon="5.62584">
        <ele>425.0401611</ele>
        <time>2011-11-06T15:19:10Z</time>
      </trkpt>
      <trkpt lat="45.34435" lon="5.62588">
        <ele>425.520752</ele>
        <time>2011-11-06T15:19:16Z</time>
      </trkpt>
      <trkpt lat="45.34422" lon="5.62591">
        <ele>428.4046631</ele>
        <time>2011-11-06T15:19:23Z</time>
      </trkpt>
      <trkpt lat="45.34406" lon="5.62593">
        <ele>430.3272705</ele>
        <time>2011-11-06T15:19:30Z</time>
      </trkpt>
      <trkpt lat="45.34395" lon="5.62594">
        <ele>431.769165</ele>
        <time>2011-11-06T15:19:35Z</time>
      </trkpt>
      <trkpt lat="45.34383" lon="5.62594">
        <ele>432.25</ele>
        <time>2011-11-06T15:19:40Z</time>
      </trkpt>
      <trkpt lat="45.34372" lon="5.62593">
        <ele>434.1726074</ele>
        <time>2011-11-06T15:19:45Z</time>
      </trkpt>
      <trkpt lat="45.34358" lon="5.62593">
        <ele>435.1339111</ele>
        <time>2011-11-06T15:19:52Z</time>
      </trkpt>
      <trkpt lat="45.34352" lon="5.62595">
        <ele>436.5759277</ele>
        <time>2011-11-06T15:19:55Z</time>
      </trkpt>
      <trkpt lat="45.34344" lon="5.62597">
        <ele>437.5371094</ele>
        <time>2011-11-06T15:19:59Z</time>
      </trkpt>
      <trkpt lat="45.34337" lon="5.626">
        <ele>438.4985352</ele>
        <time>2011-11-06T15:20:03Z</time>
      </trkpt>
      <trkpt lat="45.34337" lon="5.626">
        <ele>437.5371094</ele>
        <time>2011-11-06T15:20:07Z</time>
      </trkpt>
      <trkpt lat="45.34344" lon="5.62593">
        <ele>436.0952148</ele>
        <time>2011-11-06T15:20:11Z</time>
      </trkpt>
      <trkpt lat="45.34355" lon="5.62588">
        <ele>434.6533203</ele>
        <time>2011-11-06T15:20:16Z</time>
      </trkpt>
      <trkpt lat="45.34367" lon="5.62588">
        <ele>432.7307129</ele>
        <time>2011-11-06T15:20:21Z</time>
      </trkpt>
      <trkpt lat="45.34377" lon="5.6259">
        <ele>430.8079834</ele>
        <time>2011-11-06T15:20:25Z</time>
      </trkpt>
      <trkpt lat="45.34389" lon="5.6259">
        <ele>428.885376</ele>
        <time>2011-11-06T15:20:30Z</time>
      </trkpt>
      <trkpt lat="45.344" lon="5.62592">
        <ele>426.9627686</ele>
        <time>2011-11-06T15:20:35Z</time>
      </trkpt>
      <trkpt lat="45.34403" lon="5.62592">
        <ele>426.9627686</ele>
        <time>2011-11-06T15:20:36Z</time>
      </trkpt>
      <trkpt lat="45.34417" lon="5.62592">
        <ele>426.0013428</ele>
        <time>2011-11-06T15:20:42Z</time>
      </trkpt>
      <trkpt lat="45.34422" lon="5.62593">
        <ele>426.0013428</ele>
        <time>2011-11-06T15:20:44Z</time>
      </trkpt>
      <trkpt lat="45.34424" lon="5.626">
        <ele>426.9627686</ele>
        <time>2011-11-06T15:20:49Z</time>
      </trkpt>
      <trkpt lat="45.34419" lon="5.62608">
        <ele>427.9239502</ele>
        <time>2011-11-06T15:20:55Z</time>
      </trkpt>
      <trkpt lat="45.34417" lon="5.62611">
        <ele>427.4433594</ele>
        <time>2011-11-06T15:20:58Z</time>
      </trkpt>
      <trkpt lat="45.34412" lon="5.62617">
        <ele>427.9239502</ele>
        <time>2011-11-06T15:21:03Z</time>
      </trkpt>
      <trkpt lat="45.34405" lon="5.62623">
        <ele>429.8465576</ele>
        <time>2011-11-06T15:21:09Z</time>
      </trkpt>
      <trkpt lat="45.34401" lon="5.62628">
        <ele>430.8079834</ele>
        <time>2011-11-06T15:21:13Z</time>
      </trkpt>
      <trkpt lat="45.34398" lon="5.62633">
        <ele>432.25</ele>
        <time>2011-11-06T15:21:17Z</time>
      </trkpt>
      <trkpt lat="45.34389" lon="5.62642">
        <ele>433.2113037</ele>
        <time>2011-11-06T15:21:24Z</time>
      </trkpt>
      <trkpt lat="45.34384" lon="5.62653">
        <ele>438.0178223</ele>
        <time>2011-11-06T15:21:30Z</time>
      </trkpt>
      <trkpt lat="45.34384" lon="5.6266">
        <ele>439.4597168</ele>
        <time>2011-11-06T15:21:33Z</time>
      </trkpt>
      <trkpt lat="45.34384" lon="5.6267">
        <ele>441.3824463</ele>
        <time>2011-11-06T15:21:38Z</time>
      </trkpt>
      <trkpt lat="45.34388" lon="5.62688">
        <ele>442.3438721</ele>
        <time>2011-11-06T15:21:47Z</time>
      </trkpt>
      <trkpt lat="45.34388" lon="5.627">
        <ele>442.8244629</ele>
        <time>2011-11-06T15:21:53Z</time>
      </trkpt>
      <trkpt lat="45.34388" lon="5.62711">
        <ele>443.7857666</ele>
        <time>2011-11-06T15:21:59Z</time>
      </trkpt>
      <trkpt lat="45.34388" lon="5.62714">
        <ele>444.7470703</ele>
        <time>2011-11-06T15:22:01Z</time>
      </trkpt>
      <trkpt lat="45.34389" lon="5.62726">
        <ele>449.072998</ele>
        <time>2011-11-06T15:22:07Z</time>
      </trkpt>
      <trkpt lat="45.34389" lon="5.6273">
        <ele>450.0344238</ele>
        <time>2011-11-06T15:22:09Z</time>
      </trkpt>
      <trkpt lat="45.34388" lon="5.6274">
        <ele>452.4376221</ele>
        <time>2011-11-06T15:22:15Z</time>
      </trkpt>
      <trkpt lat="45.34385" lon="5.6275">
        <ele>454.3602295</ele>
        <time>2011-11-06T15:22:21Z</time>
      </trkpt>
      <trkpt lat="45.3438" lon="5.62759">
        <ele>457.7249756</ele>
        <time>2011-11-06T15:22:26Z</time>
      </trkpt>
      <trkpt lat="45.34376" lon="5.62767">
        <ele>459.1668701</ele>
        <time>2011-11-06T15:22:31Z</time>
      </trkpt>
      <trkpt lat="45.34374" lon="5.62777">
        <ele>461.0894775</ele>
        <time>2011-11-06T15:22:36Z</time>
      </trkpt>
      <trkpt lat="45.3437" lon="5.62787">
        <ele>463.012085</ele>
        <time>2011-11-06T15:22:42Z</time>
      </trkpt>
      <trkpt lat="45.34364" lon="5.62799">
        <ele>466.376709</ele>
        <time>2011-11-06T15:22:49Z</time>
      </trkpt>
      <trkpt lat="45.34363" lon="5.62804">
        <ele>467.3381348</ele>
        <time>2011-11-06T15:22:52Z</time>
      </trkpt>
      <trkpt lat="45.3436" lon="5.62816">
        <ele>470.2219238</ele>
        <time>2011-11-06T15:23:00Z</time>
      </trkpt>
      <trkpt lat="45.34359" lon="5.6282">
        <ele>471.6639404</ele>
        <time>2011-11-06T15:23:03Z</time>
      </trkpt>
      <trkpt lat="45.34355" lon="5.6283">
        <ele>473.1060791</ele>
        <time>2011-11-06T15:23:09Z</time>
      </trkpt>
      <trkpt lat="45.3435" lon="5.62837">
        <ele>474.5479736</ele>
        <time>2011-11-06T15:23:14Z</time>
      </trkpt>
      <trkpt lat="45.34345" lon="5.62842">
        <ele>475.0286865</ele>
        <time>2011-11-06T15:23:18Z</time>
      </trkpt>
      <trkpt lat="45.34341" lon="5.62845">
        <ele>475.5092773</ele>
        <time>2011-11-06T15:23:21Z</time>
      </trkpt>
      <trkpt lat="45.34335" lon="5.62851">
        <ele>476.9512939</ele>
        <time>2011-11-06T15:23:27Z</time>
      </trkpt>
      <trkpt lat="45.34331" lon="5.62854">
        <ele>475.5092773</ele>
        <time>2011-11-06T15:23:31Z</time>
      </trkpt>
      <trkpt lat="45.34324" lon="5.62862">
        <ele>476.4705811</ele>
        <time>2011-11-06T15:23:38Z</time>
      </trkpt>
      <trkpt lat="45.34318" lon="5.62867">
        <ele>476.9512939</ele>
        <time>2011-11-06T15:23:43Z</time>
      </trkpt>
      <trkpt lat="45.34313" lon="5.62874">
        <ele>477.9124756</ele>
        <time>2011-11-06T15:23:48Z</time>
      </trkpt>
      <trkpt lat="45.34314" lon="5.62882">
        <ele>479.3544922</ele>
        <time>2011-11-06T15:23:53Z</time>
      </trkpt>
      <trkpt lat="45.34315" lon="5.62885">
        <ele>478.8739014</ele>
        <time>2011-11-06T15:23:55Z</time>
      </trkpt>
      <trkpt lat="45.34319" lon="5.62895">
        <ele>479.835083</ele>
        <time>2011-11-06T15:24:02Z</time>
      </trkpt>
      <trkpt lat="45.34327" lon="5.62903">
        <ele>484.6418457</ele>
        <time>2011-11-06T15:24:09Z</time>
      </trkpt>
      <trkpt lat="45.34333" lon="5.62909">
        <ele>488.9677734</ele>
        <time>2011-11-06T15:24:14Z</time>
      </trkpt>
      <trkpt lat="45.34335" lon="5.62913">
        <ele>488.4871826</ele>
        <time>2011-11-06T15:24:17Z</time>
      </trkpt>
      <trkpt lat="45.3434" lon="5.62921">
        <ele>487.0450439</ele>
        <time>2011-11-06T15:24:24Z</time>
      </trkpt>
      <trkpt lat="45.34344" lon="5.62925">
        <ele>487.5256348</ele>
        <time>2011-11-06T15:24:28Z</time>
      </trkpt>
      <trkpt lat="45.3435" lon="5.62931">
        <ele>486.0837402</ele>
        <time>2011-11-06T15:24:34Z</time>
      </trkpt>
      <trkpt lat="45.3435" lon="5.62932">
        <ele>486.5644531</ele>
        <time>2011-11-06T15:24:35Z</time>
      </trkpt>
      <trkpt lat="45.34354" lon="5.62942">
        <ele>488.0064697</ele>
        <time>2011-11-06T15:24:42Z</time>
      </trkpt>
      <trkpt lat="45.34356" lon="5.62946">
        <ele>488.4871826</ele>
        <time>2011-11-06T15:24:45Z</time>
      </trkpt>
      <trkpt lat="45.3436" lon="5.62956">
        <ele>489.9290771</ele>
        <time>2011-11-06T15:24:51Z</time>
      </trkpt>
      <trkpt lat="45.34363" lon="5.62969">
        <ele>492.3323975</ele>
        <time>2011-11-06T15:24:58Z</time>
      </trkpt>
      <trkpt lat="45.34364" lon="5.62973">
        <ele>492.3323975</ele>
        <time>2011-11-06T15:25:00Z</time>
      </trkpt>
      <trkpt lat="45.34365" lon="5.62983">
        <ele>495.6968994</ele>
        <time>2011-11-06T15:25:06Z</time>
      </trkpt>
      <trkpt lat="45.34367" lon="5.62994">
        <ele>498.1003418</ele>
        <time>2011-11-06T15:25:13Z</time>
      </trkpt>
      <trkpt lat="45.34373" lon="5.62999">
        <ele>501.9455566</ele>
        <time>2011-11-06T15:25:18Z</time>
      </trkpt>
      <trkpt lat="45.3438" lon="5.63008">
        <ele>504.348877</ele>
        <time>2011-11-06T15:25:25Z</time>
      </trkpt>
      <trkpt lat="45.34386" lon="5.63015">
        <ele>506.2714844</ele>
        <time>2011-11-06T15:25:31Z</time>
      </trkpt>
      <trkpt lat="45.34392" lon="5.6302">
        <ele>507.713501</ele>
        <time>2011-11-06T15:25:36Z</time>
      </trkpt>
      <trkpt lat="45.344" lon="5.63029">
        <ele>508.6746826</ele>
        <time>2011-11-06T15:25:42Z</time>
      </trkpt>
      <trkpt lat="45.34402" lon="5.63031">
        <ele>509.6361084</ele>
        <time>2011-11-06T15:25:44Z</time>
      </trkpt>
      <trkpt lat="45.34409" lon="5.63037">
        <ele>513.4814453</ele>
        <time>2011-11-06T15:25:51Z</time>
      </trkpt>
      <trkpt lat="45.34417" lon="5.63045">
        <ele>514.442627</ele>
        <time>2011-11-06T15:25:57Z</time>
      </trkpt>
      <trkpt lat="45.34428" lon="5.63057">
        <ele>514.9233398</ele>
        <time>2011-11-06T15:26:04Z</time>
      </trkpt>
      <trkpt lat="45.34437" lon="5.63069">
        <ele>516.8459473</ele>
        <time>2011-11-06T15:26:11Z</time>
      </trkpt>
      <trkpt lat="45.34446" lon="5.63081">
        <ele>517.807251</ele>
        <time>2011-11-06T15:26:18Z</time>
      </trkpt>
      <trkpt lat="45.34454" lon="5.63094">
        <ele>519.7298584</ele>
        <time>2011-11-06T15:26:25Z</time>
      </trkpt>
      <trkpt lat="45.34459" lon="5.63105">
        <ele>520.6912842</ele>
        <time>2011-11-06T15:26:31Z</time>
      </trkpt>
      <trkpt lat="45.34459" lon="5.63107">
        <ele>521.1719971</ele>
        <time>2011-11-06T15:26:32Z</time>
      </trkpt>
      <trkpt lat="45.34465" lon="5.63121">
        <ele>522.1331787</ele>
        <time>2011-11-06T15:26:39Z</time>
      </trkpt>
      <trkpt lat="45.34468" lon="5.63127">
        <ele>522.6138916</ele>
        <time>2011-11-06T15:26:42Z</time>
      </trkpt>
      <trkpt lat="45.34474" lon="5.63137">
        <ele>523.0946045</ele>
        <time>2011-11-06T15:26:48Z</time>
      </trkpt>
      <trkpt lat="45.3448" lon="5.63147">
        <ele>525.0172119</ele>
        <time>2011-11-06T15:26:54Z</time>
      </trkpt>
      <trkpt lat="45.34486" lon="5.63158">
        <ele>526.4591064</ele>
        <time>2011-11-06T15:27:00Z</time>
      </trkpt>
      <trkpt lat="45.34494" lon="5.63171">
        <ele>526.9398193</ele>
        <time>2011-11-06T15:27:07Z</time>
      </trkpt>
      <trkpt lat="45.345" lon="5.63189">
        <ele>529.3431396</ele>
        <time>2011-11-06T15:27:14Z</time>
      </trkpt>
      <trkpt lat="45.34504" lon="5.63199">
        <ele>530.3044434</ele>
        <time>2011-11-06T15:27:18Z</time>
      </trkpt>
      <trkpt lat="45.3451" lon="5.6321">
        <ele>530.7851563</ele>
        <time>2011-11-06T15:27:23Z</time>
      </trkpt>
      <trkpt lat="45.34513" lon="5.63217">
        <ele>531.7463379</ele>
        <time>2011-11-06T15:27:26Z</time>
      </trkpt>
      <trkpt lat="45.34514" lon="5.63239">
        <ele>530.7851563</ele>
        <time>2011-11-06T15:27:35Z</time>
      </trkpt>
      <trkpt lat="45.34511" lon="5.63251">
        <ele>532.2270508</ele>
        <time>2011-11-06T15:27:40Z</time>
      </trkpt>
      <trkpt lat="45.34509" lon="5.63267">
        <ele>533.6689453</ele>
        <time>2011-11-06T15:27:46Z</time>
      </trkpt>
      <trkpt lat="45.34509" lon="5.63282">
        <ele>533.6689453</ele>
        <time>2011-11-06T15:27:52Z</time>
      </trkpt>
      <trkpt lat="45.3451" lon="5.6329">
        <ele>533.6689453</ele>
        <time>2011-11-06T15:27:55Z</time>
      </trkpt>
      <trkpt lat="45.34515" lon="5.63299">
        <ele>534.1496582</ele>
        <time>2011-11-06T15:27:59Z</time>
      </trkpt>
      <trkpt lat="45.34523" lon="5.6331">
        <ele>535.5915527</ele>
        <time>2011-11-06T15:28:05Z</time>
      </trkpt>
      <trkpt lat="45.34531" lon="5.63321">
        <ele>537.0336914</ele>
        <time>2011-11-06T15:28:11Z</time>
      </trkpt>
      <trkpt lat="45.3454" lon="5.6333">
        <ele>538.9562988</ele>
        <time>2011-11-06T15:28:17Z</time>
      </trkpt>
      <trkpt lat="45.34549" lon="5.63341">
        <ele>539.9176025</ele>
        <time>2011-11-06T15:28:23Z</time>
      </trkpt>
      <trkpt lat="45.34557" lon="5.63353">
        <ele>541.3594971</ele>
        <time>2011-11-06T15:28:29Z</time>
      </trkpt>
      <trkpt lat="45.34565" lon="5.63362">
        <ele>543.2821045</ele>
        <time>2011-11-06T15:28:34Z</time>
      </trkpt>
      <trkpt lat="45.3457" lon="5.63367">
        <ele>544.2436523</ele>
        <time>2011-11-06T15:28:37Z</time>
      </trkpt>
      <trkpt lat="45.34577" lon="5.63378">
        <ele>546.6468506</ele>
        <time>2011-11-06T15:28:42Z</time>
      </trkpt>
      <trkpt lat="45.34583" lon="5.63386">
        <ele>547.6081543</ele>
        <time>2011-11-06T15:28:46Z</time>
      </trkpt>
      <trkpt lat="45.34592" lon="5.63392">
        <ele>548.5693359</ele>
        <time>2011-11-06T15:28:52Z</time>
      </trkpt>
      <trkpt lat="45.34594" lon="5.63391">
        <ele>549.5307617</ele>
        <time>2011-11-06T15:28:53Z</time>
      </trkpt>
      <trkpt lat="45.34604" lon="5.63385">
        <ele>551.934082</ele>
        <time>2011-11-06T15:29:00Z</time>
      </trkpt>
      <trkpt lat="45.34611" lon="5.63381">
        <ele>551.4533691</ele>
        <time>2011-11-06T15:29:04Z</time>
      </trkpt>
      <trkpt lat="45.34621" lon="5.63375">
        <ele>552.8952637</ele>
        <time>2011-11-06T15:29:11Z</time>
      </trkpt>
      <trkpt lat="45.34622" lon="5.63374">
        <ele>553.3759766</ele>
        <time>2011-11-06T15:29:12Z</time>
      </trkpt>
      <trkpt lat="45.34628" lon="5.63371">
        <ele>554.8178711</ele>
        <time>2011-11-06T15:29:16Z</time>
      </trkpt>
      <trkpt lat="45.34636" lon="5.63369">
        <ele>553.8566895</ele>
        <time>2011-11-06T15:29:21Z</time>
      </trkpt>
      <trkpt lat="45.34643" lon="5.63371">
        <ele>554.3374023</ele>
        <time>2011-11-06T15:29:26Z</time>
      </trkpt>
      <trkpt lat="45.3465" lon="5.63373">
        <ele>555.298584</ele>
        <time>2011-11-06T15:29:31Z</time>
      </trkpt>
      <trkpt lat="45.34657" lon="5.63376">
        <ele>555.7792969</ele>
        <time>2011-11-06T15:29:36Z</time>
      </trkpt>
      <trkpt lat="45.34664" lon="5.63379">
        <ele>561.0666504</ele>
        <time>2011-11-06T15:29:41Z</time>
      </trkpt>
      <trkpt lat="45.34671" lon="5.63382">
        <ele>564.9118652</ele>
        <time>2011-11-06T15:29:46Z</time>
      </trkpt>
      <trkpt lat="45.34674" lon="5.63382">
        <ele>565.3925781</ele>
        <time>2011-11-06T15:29:48Z</time>
      </trkpt>
      <trkpt lat="45.34678" lon="5.63384">
        <ele>567.3151855</ele>
        <time>2011-11-06T15:29:52Z</time>
      </trkpt>
      <trkpt lat="45.34682" lon="5.63386">
        <ele>568.7570801</ele>
        <time>2011-11-06T15:29:56Z</time>
      </trkpt>
      <trkpt lat="45.34688" lon="5.63388">
        <ele>571.1604004</ele>
        <time>2011-11-06T15:30:00Z</time>
      </trkpt>
      <trkpt lat="45.34695" lon="5.63394">
        <ele>574.0444336</ele>
        <time>2011-11-06T15:30:06Z</time>
      </trkpt>
      <trkpt lat="45.34703" lon="5.63401">
        <ele>575.0058594</ele>
        <time>2011-11-06T15:30:12Z</time>
      </trkpt>
      <trkpt lat="45.34707" lon="5.63402">
        <ele>575.4863281</ele>
        <time>2011-11-06T15:30:14Z</time>
      </trkpt>
      <trkpt lat="45.34716" lon="5.63404">
        <ele>574.5251465</ele>
        <time>2011-11-06T15:30:19Z</time>
      </trkpt>
      <trkpt lat="45.34724" lon="5.63409">
        <ele>575.967041</ele>
        <time>2011-11-06T15:30:24Z</time>
      </trkpt>
      <trkpt lat="45.34733" lon="5.63418">
        <ele>573.5639648</ele>
        <time>2011-11-06T15:30:29Z</time>
      </trkpt>
      <trkpt lat="45.34734" lon="5.63419">
        <ele>574.0444336</ele>
        <time>2011-11-06T15:30:30Z</time>
      </trkpt>
      <trkpt lat="45.34738" lon="5.63421">
        <ele>573.5639648</ele>
        <time>2011-11-06T15:30:33Z</time>
      </trkpt>
      <trkpt lat="45.34752" lon="5.63423">
        <ele>574.5251465</ele>
        <time>2011-11-06T15:30:40Z</time>
      </trkpt>
      <trkpt lat="45.34763" lon="5.63428">
        <ele>574.5251465</ele>
        <time>2011-11-06T15:30:45Z</time>
      </trkpt>
      <trkpt lat="45.34775" lon="5.63433">
        <ele>573.083252</ele>
        <time>2011-11-06T15:30:50Z</time>
      </trkpt>
      <trkpt lat="45.34787" lon="5.63434">
        <ele>572.1218262</ele>
        <time>2011-11-06T15:30:55Z</time>
      </trkpt>
      <trkpt lat="45.34798" lon="5.63433">
        <ele>570.1989746</ele>
        <time>2011-11-06T15:31:00Z</time>
      </trkpt>
      <trkpt lat="45.34807" lon="5.63433">
        <ele>569.7185059</ele>
        <time>2011-11-06T15:31:04Z</time>
      </trkpt>
      <trkpt lat="45.3482" lon="5.63433">
        <ele>568.7570801</ele>
        <time>2011-11-06T15:31:10Z</time>
      </trkpt>
      <trkpt lat="45.34831" lon="5.63435">
        <ele>569.7185059</ele>
        <time>2011-11-06T15:31:15Z</time>
      </trkpt>
      <trkpt lat="45.3484" lon="5.6344">
        <ele>571.1604004</ele>
        <time>2011-11-06T15:31:20Z</time>
      </trkpt>
      <trkpt lat="45.34846" lon="5.63446">
        <ele>570.6796875</ele>
        <time>2011-11-06T15:31:24Z</time>
      </trkpt>
      <trkpt lat="45.34854" lon="5.6345">
        <ele>570.6796875</ele>
        <time>2011-11-06T15:31:28Z</time>
      </trkpt>
      <trkpt lat="45.34864" lon="5.63455">
        <ele>570.6796875</ele>
        <time>2011-11-06T15:31:33Z</time>
      </trkpt>
      <trkpt lat="45.34871" lon="5.63458">
        <ele>571.6408691</ele>
        <time>2011-11-06T15:31:37Z</time>
      </trkpt>
      <trkpt lat="45.34875" lon="5.63459">
        <ele>572.1218262</ele>
        <time>2011-11-06T15:31:39Z</time>
      </trkpt>
      <trkpt lat="45.3489" lon="5.6346">
        <ele>579.331543</ele>
        <time>2011-11-06T15:31:46Z</time>
      </trkpt>
      <trkpt lat="45.34901" lon="5.63458">
        <ele>585.0996094</ele>
        <time>2011-11-06T15:31:51Z</time>
      </trkpt>
      <trkpt lat="45.34912" lon="5.63457">
        <ele>587.9833984</ele>
        <time>2011-11-06T15:31:56Z</time>
      </trkpt>
      <trkpt lat="45.34916" lon="5.63459">
        <ele>588.9450684</ele>
        <time>2011-11-06T15:31:58Z</time>
      </trkpt>
      <trkpt lat="45.34932" lon="5.63461">
        <ele>589.90625</ele>
        <time>2011-11-06T15:32:06Z</time>
      </trkpt>
      <trkpt lat="45.34938" lon="5.63464">
        <ele>589.4255371</ele>
        <time>2011-11-06T15:32:08Z</time>
      </trkpt>
      <trkpt lat="45.34952" lon="5.63467">
        <ele>587.0219727</ele>
        <time>2011-11-06T15:32:14Z</time>
      </trkpt>
      <trkpt lat="45.34963" lon="5.63473">
        <ele>580.2929688</ele>
        <time>2011-11-06T15:32:18Z</time>
      </trkpt>
      <trkpt lat="45.34976" lon="5.63475">
        <ele>576.4477539</ele>
        <time>2011-11-06T15:32:23Z</time>
      </trkpt>
      <trkpt lat="45.3499" lon="5.63479">
        <ele>570.6796875</ele>
        <time>2011-11-06T15:32:28Z</time>
      </trkpt>
      <trkpt lat="45.35" lon="5.63484">
        <ele>569.237793</ele>
        <time>2011-11-06T15:32:33Z</time>
      </trkpt>
      <trkpt lat="45.35006" lon="5.6349">
        <ele>567.3151855</ele>
        <time>2011-11-06T15:32:37Z</time>
      </trkpt>
      <trkpt lat="45.35016" lon="5.63495">
        <ele>569.237793</ele>
        <time>2011-11-06T15:32:42Z</time>
      </trkpt>
      <trkpt lat="45.35025" lon="5.635">
        <ele>570.6796875</ele>
        <time>2011-11-06T15:32:47Z</time>
      </trkpt>
      <trkpt lat="45.3503" lon="5.63503">
        <ele>571.6408691</ele>
        <time>2011-11-06T15:32:50Z</time>
      </trkpt>
      <trkpt lat="45.35035" lon="5.63504">
        <ele>572.6025391</ele>
        <time>2011-11-06T15:32:54Z</time>
      </trkpt>
      <trkpt lat="45.35044" lon="5.63504">
        <ele>575.4863281</ele>
        <time>2011-11-06T15:33:00Z</time>
      </trkpt>
      <trkpt lat="45.35049" lon="5.63506">
        <ele>576.9284668</ele>
        <time>2011-11-06T15:33:04Z</time>
      </trkpt>
      <trkpt lat="45.35054" lon="5.63508">
        <ele>577.4091797</ele>
        <time>2011-11-06T15:33:09Z</time>
      </trkpt>
      <trkpt lat="45.35057" lon="5.6351">
        <ele>577.4091797</ele>
        <time>2011-11-06T15:33:11Z</time>
      </trkpt>
      <trkpt lat="45.35063" lon="5.63516">
        <ele>578.3703613</ele>
        <time>2011-11-06T15:33:16Z</time>
      </trkpt>
      <trkpt lat="45.3507" lon="5.63517">
        <ele>581.7348633</ele>
        <time>2011-11-06T15:33:20Z</time>
      </trkpt>
      <trkpt lat="45.35079" lon="5.63524">
        <ele>583.6574707</ele>
        <time>2011-11-06T15:33:26Z</time>
      </trkpt>
      <trkpt lat="45.35084" lon="5.63529">
        <ele>583.6574707</ele>
        <time>2011-11-06T15:33:30Z</time>
      </trkpt>
      <trkpt lat="45.35086" lon="5.6353">
        <ele>583.6574707</ele>
        <time>2011-11-06T15:33:32Z</time>
      </trkpt>
      <trkpt lat="45.35093" lon="5.63539">
        <ele>582.2155762</ele>
        <time>2011-11-06T15:33:38Z</time>
      </trkpt>
      <trkpt lat="45.35094" lon="5.63542">
        <ele>582.2155762</ele>
        <time>2011-11-06T15:33:40Z</time>
      </trkpt>
      <trkpt lat="45.35099" lon="5.63546">
        <ele>583.6574707</ele>
        <time>2011-11-06T15:33:44Z</time>
      </trkpt>
      <trkpt lat="45.35104" lon="5.63554">
        <ele>583.6574707</ele>
        <time>2011-11-06T15:33:49Z</time>
      </trkpt>
      <trkpt lat="45.35113" lon="5.63556">
        <ele>581.2543945</ele>
        <time>2011-11-06T15:33:54Z</time>
      </trkpt>
      <trkpt lat="45.35126" lon="5.63557">
        <ele>577.8896484</ele>
        <time>2011-11-06T15:34:00Z</time>
      </trkpt>
      <trkpt lat="45.35136" lon="5.63555">
        <ele>575.0058594</ele>
        <time>2011-11-06T15:34:05Z</time>
      </trkpt>
      <trkpt lat="45.35148" lon="5.63551">
        <ele>573.083252</ele>
        <time>2011-11-06T15:34:11Z</time>
      </trkpt>
      <trkpt lat="45.35159" lon="5.63552">
        <ele>570.6796875</ele>
        <time>2011-11-06T15:34:16Z</time>
      </trkpt>
      <trkpt lat="45.35162" lon="5.63552">
        <ele>570.1989746</ele>
        <time>2011-11-06T15:34:18Z</time>
      </trkpt>
      <trkpt lat="45.35174" lon="5.63555">
        <ele>568.7570801</ele>
        <time>2011-11-06T15:34:23Z</time>
      </trkpt>
      <trkpt lat="45.3518" lon="5.63556">
        <ele>565.873291</ele>
        <time>2011-11-06T15:34:26Z</time>
      </trkpt>
      <trkpt lat="45.35191" lon="5.6355">
        <ele>565.873291</ele>
        <time>2011-11-06T15:34:31Z</time>
      </trkpt>
      <trkpt lat="45.35201" lon="5.63546">
        <ele>564.4311523</ele>
        <time>2011-11-06T15:34:36Z</time>
      </trkpt>
      <trkpt lat="45.35212" lon="5.63541">
        <ele>563.4699707</ele>
        <time>2011-11-06T15:34:41Z</time>
      </trkpt>
      <trkpt lat="45.35217" lon="5.6354">
        <ele>564.9118652</ele>
        <time>2011-11-06T15:34:45Z</time>
      </trkpt>
      <trkpt lat="45.35225" lon="5.63538">
        <ele>564.9118652</ele>
        <time>2011-11-06T15:34:49Z</time>
      </trkpt>
      <trkpt lat="45.35229" lon="5.63537">
        <ele>565.873291</ele>
        <time>2011-11-06T15:34:51Z</time>
      </trkpt>
      <trkpt lat="45.35242" lon="5.63538">
        <ele>566.8344727</ele>
        <time>2011-11-06T15:34:57Z</time>
      </trkpt>
      <trkpt lat="45.35249" lon="5.63536">
        <ele>567.3151855</ele>
        <time>2011-11-06T15:35:00Z</time>
      </trkpt>
      <trkpt lat="45.35256" lon="5.63535">
        <ele>565.873291</ele>
        <time>2011-11-06T15:35:05Z</time>
      </trkpt>
      <trkpt lat="45.35263" lon="5.63538">
        <ele>562.9892578</ele>
        <time>2011-11-06T15:35:10Z</time>
      </trkpt>
      <trkpt lat="45.35265" lon="5.63537">
        <ele>562.0280762</ele>
        <time>2011-11-06T15:35:11Z</time>
      </trkpt>
      <trkpt lat="45.35272" lon="5.63537">
        <ele>556.2600098</ele>
        <time>2011-11-06T15:35:16Z</time>
      </trkpt>
      <trkpt lat="45.35276" lon="5.63539">
        <ele>552.4145508</ele>
        <time>2011-11-06T15:35:20Z</time>
      </trkpt>
      <trkpt lat="45.35282" lon="5.63542">
        <ele>550.4921875</ele>
        <time>2011-11-06T15:35:24Z</time>
      </trkpt>
      <trkpt lat="45.35288" lon="5.6354">
        <ele>547.6081543</ele>
        <time>2011-11-06T15:35:28Z</time>
      </trkpt>
      <trkpt lat="45.35295" lon="5.63539">
        <ele>547.6081543</ele>
        <time>2011-11-06T15:35:33Z</time>
      </trkpt>
      <trkpt lat="45.35301" lon="5.6354">
        <ele>547.1274414</ele>
        <time>2011-11-06T15:35:37Z</time>
      </trkpt>
      <trkpt lat="45.35311" lon="5.63539">
        <ele>541.3594971</ele>
        <time>2011-11-06T15:35:43Z</time>
      </trkpt>
      <trkpt lat="45.35318" lon="5.63535">
        <ele>537.0336914</ele>
        <time>2011-11-06T15:35:47Z</time>
      </trkpt>
      <trkpt lat="45.35322" lon="5.63534">
        <ele>535.5915527</ele>
        <time>2011-11-06T15:35:49Z</time>
      </trkpt>
      <trkpt lat="45.35328" lon="5.6353">
        <ele>533.1883545</ele>
        <time>2011-11-06T15:35:52Z</time>
      </trkpt>
      <trkpt lat="45.35338" lon="5.6352">
        <ele>530.3044434</ele>
        <time>2011-11-06T15:35:57Z</time>
      </trkpt>
      <trkpt lat="45.35341" lon="5.63509">
        <ele>530.3044434</ele>
        <time>2011-11-06T15:36:00Z</time>
      </trkpt>
      <trkpt lat="45.35347" lon="5.63502">
        <ele>527.901001</ele>
        <time>2011-11-06T15:36:04Z</time>
      </trkpt>
      <trkpt lat="45.35356" lon="5.63508">
        <ele>526.4591064</ele>
        <time>2011-11-06T15:36:07Z</time>
      </trkpt>
      <trkpt lat="45.35366" lon="5.63524">
        <ele>525.9783936</ele>
        <time>2011-11-06T15:36:13Z</time>
      </trkpt>
      <trkpt lat="45.35375" lon="5.63533">
        <ele>527.901001</ele>
        <time>2011-11-06T15:36:18Z</time>
      </trkpt>
      <trkpt lat="45.35384" lon="5.63535">
        <ele>528.8625488</ele>
        <time>2011-11-06T15:36:22Z</time>
      </trkpt>
      <trkpt lat="45.35386" lon="5.63535">
        <ele>528.8625488</ele>
        <time>2011-11-06T15:36:23Z</time>
      </trkpt>
      <trkpt lat="45.35396" lon="5.63538">
        <ele>529.8237305</ele>
        <time>2011-11-06T15:36:27Z</time>
      </trkpt>
      <trkpt lat="45.35412" lon="5.63539">
        <ele>529.8237305</ele>
        <time>2011-11-06T15:36:33Z</time>
      </trkpt>
      <trkpt lat="45.35424" lon="5.63539">
        <ele>532.7077637</ele>
        <time>2011-11-06T15:36:38Z</time>
      </trkpt>
      <trkpt lat="45.35439" lon="5.63537">
        <ele>534.6303711</ele>
        <time>2011-11-06T15:36:44Z</time>
      </trkpt>
      <trkpt lat="45.35454" lon="5.63539">
        <ele>534.1496582</ele>
        <time>2011-11-06T15:36:50Z</time>
      </trkpt>
      <trkpt lat="45.35465" lon="5.63545">
        <ele>532.7077637</ele>
        <time>2011-11-06T15:36:54Z</time>
      </trkpt>
      <trkpt lat="45.35476" lon="5.63554">
        <ele>531.2657471</ele>
        <time>2011-11-06T15:36:58Z</time>
      </trkpt>
      <trkpt lat="45.35487" lon="5.63562">
        <ele>531.2657471</ele>
        <time>2011-11-06T15:37:03Z</time>
      </trkpt>
      <trkpt lat="45.355" lon="5.63569">
        <ele>529.3431396</ele>
        <time>2011-11-06T15:37:08Z</time>
      </trkpt>
      <trkpt lat="45.35512" lon="5.63573">
        <ele>528.3818359</ele>
        <time>2011-11-06T15:37:13Z</time>
      </trkpt>
      <trkpt lat="45.35525" lon="5.6358">
        <ele>526.9398193</ele>
        <time>2011-11-06T15:37:18Z</time>
      </trkpt>
      <trkpt lat="45.35535" lon="5.63587">
        <ele>527.4204102</ele>
        <time>2011-11-06T15:37:22Z</time>
      </trkpt>
      <trkpt lat="45.35545" lon="5.63595">
        <ele>525.4978027</ele>
        <time>2011-11-06T15:37:26Z</time>
      </trkpt>
      <trkpt lat="45.35557" lon="5.63603">
        <ele>523.0946045</ele>
        <time>2011-11-06T15:37:31Z</time>
      </trkpt>
      <trkpt lat="45.35568" lon="5.63608">
        <ele>524.0557861</ele>
        <time>2011-11-06T15:37:36Z</time>
      </trkpt>
      <trkpt lat="45.35579" lon="5.63621">
        <ele>523.0946045</ele>
        <time>2011-11-06T15:37:41Z</time>
      </trkpt>
      <trkpt lat="45.35588" lon="5.63623">
        <ele>522.6138916</ele>
        <time>2011-11-06T15:37:45Z</time>
      </trkpt>
      <trkpt lat="45.35597" lon="5.63624">
        <ele>524.536499</ele>
        <time>2011-11-06T15:37:49Z</time>
      </trkpt>
      <trkpt lat="45.35609" lon="5.63622">
        <ele>525.4978027</ele>
        <time>2011-11-06T15:37:53Z</time>
      </trkpt>
      <trkpt lat="45.35619" lon="5.63625">
        <ele>526.9398193</ele>
        <time>2011-11-06T15:37:57Z</time>
      </trkpt>
      <trkpt lat="45.35629" lon="5.63627">
        <ele>529.8237305</ele>
        <time>2011-11-06T15:38:01Z</time>
      </trkpt>
      <trkpt lat="45.35634" lon="5.63633">
        <ele>531.2657471</ele>
        <time>2011-11-06T15:38:04Z</time>
      </trkpt>
      <trkpt lat="45.35646" lon="5.63636">
        <ele>532.2270508</ele>
        <time>2011-11-06T15:38:09Z</time>
      </trkpt>
      <trkpt lat="45.35659" lon="5.63643">
        <ele>533.6689453</ele>
        <time>2011-11-06T15:38:14Z</time>
      </trkpt>
      <trkpt lat="45.3567" lon="5.63649">
        <ele>536.0723877</ele>
        <time>2011-11-06T15:38:19Z</time>
      </trkpt>
      <trkpt lat="45.3568" lon="5.63658">
        <ele>537.0336914</ele>
        <time>2011-11-06T15:38:24Z</time>
      </trkpt>
      <trkpt lat="45.35689" lon="5.63664">
        <ele>538.9562988</ele>
        <time>2011-11-06T15:38:28Z</time>
      </trkpt>
      <trkpt lat="45.35698" lon="5.63672">
        <ele>539.4368896</ele>
        <time>2011-11-06T15:38:32Z</time>
      </trkpt>
      <trkpt lat="45.35706" lon="5.63677">
        <ele>538.9562988</ele>
        <time>2011-11-06T15:38:35Z</time>
      </trkpt>
      <trkpt lat="45.35717" lon="5.63684">
        <ele>538.9562988</ele>
        <time>2011-11-06T15:38:40Z</time>
      </trkpt>
      <trkpt lat="45.35727" lon="5.6369">
        <ele>539.9176025</ele>
        <time>2011-11-06T15:38:44Z</time>
      </trkpt>
      <trkpt lat="45.35739" lon="5.63702">
        <ele>541.84021</ele>
        <time>2011-11-06T15:38:50Z</time>
      </trkpt>
      <trkpt lat="45.3575" lon="5.63718">
        <ele>539.4368896</ele>
        <time>2011-11-06T15:38:55Z</time>
      </trkpt>
      <trkpt lat="45.35756" lon="5.63725">
        <ele>537.9949951</ele>
        <time>2011-11-06T15:38:57Z</time>
      </trkpt>
      <trkpt lat="45.35771" lon="5.63744">
        <ele>541.3594971</ele>
        <time>2011-11-06T15:39:03Z</time>
      </trkpt>
      <trkpt lat="45.35783" lon="5.63758">
        <ele>538.475708</ele>
        <time>2011-11-06T15:39:08Z</time>
      </trkpt>
      <trkpt lat="45.35793" lon="5.63771">
        <ele>533.1883545</ele>
        <time>2011-11-06T15:39:12Z</time>
      </trkpt>
      <trkpt lat="45.35798" lon="5.63775">
        <ele>531.2657471</ele>
        <time>2011-11-06T15:39:14Z</time>
      </trkpt>
      <trkpt lat="45.35807" lon="5.63775">
        <ele>530.7851563</ele>
        <time>2011-11-06T15:39:18Z</time>
      </trkpt>
      <trkpt lat="45.35813" lon="5.63777">
        <ele>529.3431396</ele>
        <time>2011-11-06T15:39:21Z</time>
      </trkpt>
      <trkpt lat="45.35821" lon="5.6378">
        <ele>528.8625488</ele>
        <time>2011-11-06T15:39:25Z</time>
      </trkpt>
      <trkpt lat="45.3583" lon="5.63781">
        <ele>528.3818359</ele>
        <time>2011-11-06T15:39:29Z</time>
      </trkpt>
      <trkpt lat="45.35844" lon="5.63789">
        <ele>530.7851563</ele>
        <time>2011-11-06T15:39:35Z</time>
      </trkpt>
      <trkpt lat="45.35854" lon="5.63794">
        <ele>530.3044434</ele>
        <time>2011-11-06T15:39:40Z</time>
      </trkpt>
      <trkpt lat="45.35866" lon="5.63798">
        <ele>529.3431396</ele>
        <time>2011-11-06T15:39:45Z</time>
      </trkpt>
      <trkpt lat="45.35878" lon="5.63804">
        <ele>525.0172119</ele>
        <time>2011-11-06T15:39:49Z</time>
      </trkpt>
      <trkpt lat="45.35888" lon="5.6381">
        <ele>521.6525879</ele>
        <time>2011-11-06T15:39:53Z</time>
      </trkpt>
      <trkpt lat="45.359" lon="5.63816">
        <ele>519.7298584</ele>
        <time>2011-11-06T15:39:58Z</time>
      </trkpt>
      <trkpt lat="45.35906" lon="5.6382">
        <ele>515.8846436</ele>
        <time>2011-11-06T15:40:01Z</time>
      </trkpt>
      <trkpt lat="45.3591" lon="5.63829">
        <ele>512.0394287</ele>
        <time>2011-11-06T15:40:07Z</time>
      </trkpt>
      <trkpt lat="45.3591" lon="5.63832">
        <ele>512.0394287</ele>
        <time>2011-11-06T15:40:12Z</time>
      </trkpt>
      <trkpt lat="45.35911" lon="5.63835">
        <ele>515.4040527</ele>
        <time>2011-11-06T15:40:17Z</time>
      </trkpt>
      <trkpt lat="45.35919" lon="5.63824">
        <ele>516.8459473</ele>
        <time>2011-11-06T15:40:23Z</time>
      </trkpt>
      <trkpt lat="45.35928" lon="5.63816">
        <ele>516.3652344</ele>
        <time>2011-11-06T15:40:28Z</time>
      </trkpt>
      <trkpt lat="45.35934" lon="5.63806">
        <ele>514.442627</ele>
        <time>2011-11-06T15:40:32Z</time>
      </trkpt>
      <trkpt lat="45.35945" lon="5.63803">
        <ele>510.59729</ele>
        <time>2011-11-06T15:40:39Z</time>
      </trkpt>
      <trkpt lat="45.35946" lon="5.63804">
        <ele>510.59729</ele>
        <time>2011-11-06T15:40:40Z</time>
      </trkpt>
      <trkpt lat="45.35947" lon="5.63804">
        <ele>511.0780029</ele>
        <time>2011-11-06T15:40:43Z</time>
      </trkpt>
      <trkpt lat="45.35946" lon="5.63808">
        <ele>507.2327881</ele>
        <time>2011-11-06T15:40:52Z</time>
      </trkpt>
      <trkpt lat="45.35946" lon="5.63807">
        <ele>506.7520752</ele>
        <time>2011-11-06T15:40:53Z</time>
      </trkpt>
      <trkpt lat="45.35945" lon="5.63796">
        <ele>500.9841309</ele>
        <time>2011-11-06T15:40:58Z</time>
      </trkpt>
      <trkpt lat="45.35944" lon="5.6379">
        <ele>500.50354</ele>
        <time>2011-11-06T15:41:00Z</time>
      </trkpt>
      <trkpt lat="45.35938" lon="5.6377">
        <ele>503.3874512</ele>
        <time>2011-11-06T15:41:05Z</time>
      </trkpt>
      <trkpt lat="45.35937" lon="5.63757">
        <ele>503.8681641</ele>
        <time>2011-11-06T15:41:09Z</time>
      </trkpt>
      <trkpt lat="45.35934" lon="5.63741">
        <ele>504.348877</ele>
        <time>2011-11-06T15:41:14Z</time>
      </trkpt>
      <trkpt lat="45.35929" lon="5.63727">
        <ele>501.4648438</ele>
        <time>2011-11-06T15:41:18Z</time>
      </trkpt>
      <trkpt lat="45.35926" lon="5.6372">
        <ele>500.9841309</ele>
        <time>2011-11-06T15:41:20Z</time>
      </trkpt>
      <trkpt lat="45.35923" lon="5.63702">
        <ele>496.6583252</ele>
        <time>2011-11-06T15:41:25Z</time>
      </trkpt>
      <trkpt lat="45.35918" lon="5.63687">
        <ele>493.774292</ele>
        <time>2011-11-06T15:41:29Z</time>
      </trkpt>
      <trkpt lat="45.35913" lon="5.63675">
        <ele>492.8129883</ele>
        <time>2011-11-06T15:41:33Z</time>
      </trkpt>
      <trkpt lat="45.35906" lon="5.63655">
        <ele>491.3709717</ele>
        <time>2011-11-06T15:41:40Z</time>
      </trkpt>
      <trkpt lat="45.35901" lon="5.63639">
        <ele>488.0064697</ele>
        <time>2011-11-06T15:41:45Z</time>
      </trkpt>
      <trkpt lat="45.35898" lon="5.63632">
        <ele>486.5644531</ele>
        <time>2011-11-06T15:41:48Z</time>
      </trkpt>
      <trkpt lat="45.35897" lon="5.63627">
        <ele>484.1611328</ele>
        <time>2011-11-06T15:41:51Z</time>
      </trkpt>
      <trkpt lat="45.35895" lon="5.63622">
        <ele>482.2385254</ele>
        <time>2011-11-06T15:41:53Z</time>
      </trkpt>
      <trkpt lat="45.35887" lon="5.63611">
        <ele>477.4318848</ele>
        <time>2011-11-06T15:41:58Z</time>
      </trkpt>
      <trkpt lat="45.35878" lon="5.63593">
        <ele>480.315918</ele>
        <time>2011-11-06T15:42:03Z</time>
      </trkpt>
      <trkpt lat="45.35871" lon="5.63583">
        <ele>478.8739014</ele>
        <time>2011-11-06T15:42:07Z</time>
      </trkpt>
      <trkpt lat="45.35862" lon="5.63571">
        <ele>473.5866699</ele>
        <time>2011-11-06T15:42:13Z</time>
      </trkpt>
      <trkpt lat="45.35858" lon="5.63564">
        <ele>471.6639404</ele>
        <time>2011-11-06T15:42:16Z</time>
      </trkpt>
      <trkpt lat="45.35856" lon="5.6356">
        <ele>471.1833496</ele>
        <time>2011-11-06T15:42:18Z</time>
      </trkpt>
      <trkpt lat="45.35853" lon="5.63547">
        <ele>466.8574219</ele>
        <time>2011-11-06T15:42:24Z</time>
      </trkpt>
      <trkpt lat="45.35852" lon="5.63545">
        <ele>465.8961182</ele>
        <time>2011-11-06T15:42:25Z</time>
      </trkpt>
      <trkpt lat="45.3585" lon="5.63533">
        <ele>462.5313721</ele>
        <time>2011-11-06T15:42:29Z</time>
      </trkpt>
      <trkpt lat="45.35848" lon="5.63519">
        <ele>458.6861572</ele>
        <time>2011-11-06T15:42:33Z</time>
      </trkpt>
      <trkpt lat="45.35848" lon="5.63503">
        <ele>454.3602295</ele>
        <time>2011-11-06T15:42:38Z</time>
      </trkpt>
      <trkpt lat="45.35846" lon="5.63487">
        <ele>451.4763184</ele>
        <time>2011-11-06T15:42:43Z</time>
      </trkpt>
      <trkpt lat="45.35845" lon="5.63477">
        <ele>450.5150146</ele>
        <time>2011-11-06T15:42:47Z</time>
      </trkpt>
      <trkpt lat="45.35846" lon="5.63463">
        <ele>445.708374</ele>
        <time>2011-11-06T15:42:52Z</time>
      </trkpt>
      <trkpt lat="45.35845" lon="5.63448">
        <ele>444.2664795</ele>
        <time>2011-11-06T15:42:57Z</time>
      </trkpt>
      <trkpt lat="45.35842" lon="5.63432">
        <ele>444.2664795</ele>
        <time>2011-11-06T15:43:02Z</time>
      </trkpt>
      <trkpt lat="45.35842" lon="5.6343">
        <ele>443.7857666</ele>
        <time>2011-11-06T15:43:03Z</time>
      </trkpt>
      <trkpt lat="45.35846" lon="5.63409">
        <ele>442.8244629</ele>
        <time>2011-11-06T15:43:10Z</time>
      </trkpt>
      <trkpt lat="45.35846" lon="5.63402">
        <ele>446.6696777</ele>
        <time>2011-11-06T15:43:13Z</time>
      </trkpt>
      <trkpt lat="45.35849" lon="5.6339">
        <ele>444.2664795</ele>
        <time>2011-11-06T15:43:18Z</time>
      </trkpt>
      <trkpt lat="45.35851" lon="5.63379">
        <ele>443.3050537</ele>
        <time>2011-11-06T15:43:21Z</time>
      </trkpt>
      <trkpt lat="45.35852" lon="5.63376">
        <ele>443.3050537</ele>
        <time>2011-11-06T15:43:22Z</time>
      </trkpt>
      <trkpt lat="45.35854" lon="5.63366">
        <ele>440.9018555</ele>
        <time>2011-11-06T15:43:25Z</time>
      </trkpt>
      <trkpt lat="45.35857" lon="5.63348">
        <ele>440.9018555</ele>
        <time>2011-11-06T15:43:30Z</time>
      </trkpt>
      <trkpt lat="45.35858" lon="5.63341">
        <ele>441.8631592</ele>
        <time>2011-11-06T15:43:32Z</time>
      </trkpt>
      <trkpt lat="45.3586" lon="5.63332">
        <ele>441.8631592</ele>
        <time>2011-11-06T15:43:35Z</time>
      </trkpt>
      <trkpt lat="45.35863" lon="5.6333">
        <ele>441.3824463</ele>
        <time>2011-11-06T15:43:37Z</time>
      </trkpt>
      <trkpt lat="45.35862" lon="5.63332">
        <ele>443.3050537</ele>
        <time>2011-11-06T15:43:40Z</time>
      </trkpt>
      <trkpt lat="45.35859" lon="5.63339">
        <ele>443.7857666</ele>
        <time>2011-11-06T15:43:44Z</time>
      </trkpt>
      <trkpt lat="45.35854" lon="5.63352">
        <ele>448.5924072</ele>
        <time>2011-11-06T15:43:51Z</time>
      </trkpt>
      <trkpt lat="45.35852" lon="5.63358">
        <ele>448.1118164</ele>
        <time>2011-11-06T15:43:54Z</time>
      </trkpt>
      <trkpt lat="45.35849" lon="5.63366">
        <ele>449.5537109</ele>
        <time>2011-11-06T15:43:58Z</time>
      </trkpt>
      <trkpt lat="45.35846" lon="5.63378">
        <ele>451.9570313</ele>
        <time>2011-11-06T15:44:03Z</time>
      </trkpt>
      <trkpt lat="45.35846" lon="5.63379">
        <ele>451.9570313</ele>
        <time>2011-11-06T15:44:04Z</time>
      </trkpt>
      <trkpt lat="45.35845" lon="5.63387">
        <ele>453.8796387</ele>
        <time>2011-11-06T15:44:08Z</time>
      </trkpt>
      <trkpt lat="45.35841" lon="5.63399">
        <ele>455.3215332</ele>
        <time>2011-11-06T15:44:14Z</time>
      </trkpt>
      <trkpt lat="45.35839" lon="5.63417">
        <ele>461.0894775</ele>
        <time>2011-11-06T15:44:22Z</time>
      </trkpt>
      <trkpt lat="45.35839" lon="5.63422">
        <ele>463.9733887</ele>
        <time>2011-11-06T15:44:24Z</time>
      </trkpt>
      <trkpt lat="45.3584" lon="5.63435">
        <ele>466.8574219</ele>
        <time>2011-11-06T15:44:30Z</time>
      </trkpt>
      <trkpt lat="45.35839" lon="5.63442">
        <ele>468.2993164</ele>
        <time>2011-11-06T15:44:33Z</time>
      </trkpt>
      <trkpt lat="45.35843" lon="5.63456">
        <ele>471.1833496</ele>
        <time>2011-11-06T15:44:41Z</time>
      </trkpt>
      <trkpt lat="45.35843" lon="5.63466">
        <ele>472.6253662</ele>
        <time>2011-11-06T15:44:45Z</time>
      </trkpt>
      <trkpt lat="45.35843" lon="5.63485">
        <ele>475.5092773</ele>
        <time>2011-11-06T15:44:53Z</time>
      </trkpt>
      <trkpt lat="45.35844" lon="5.63501">
        <ele>480.315918</ele>
        <time>2011-11-06T15:45:00Z</time>
      </trkpt>
      <trkpt lat="45.35846" lon="5.63512">
        <ele>483.1998291</ele>
        <time>2011-11-06T15:45:04Z</time>
      </trkpt>
      <trkpt lat="45.35849" lon="5.63525">
        <ele>485.1224365</ele>
        <time>2011-11-06T15:45:10Z</time>
      </trkpt>
      <trkpt lat="45.35851" lon="5.63535">
        <ele>485.1224365</ele>
        <time>2011-11-06T15:45:15Z</time>
      </trkpt>
      <trkpt lat="45.35859" lon="5.63551">
        <ele>486.0837402</ele>
        <time>2011-11-06T15:45:22Z</time>
      </trkpt>
      <trkpt lat="45.3586" lon="5.63553">
        <ele>486.5644531</ele>
        <time>2011-11-06T15:45:24Z</time>
      </trkpt>
      <trkpt lat="45.3586" lon="5.63556">
        <ele>486.0837402</ele>
        <time>2011-11-06T15:45:26Z</time>
      </trkpt>
      <trkpt lat="45.35866" lon="5.63567">
        <ele>484.6418457</ele>
        <time>2011-11-06T15:45:32Z</time>
      </trkpt>
      <trkpt lat="45.35867" lon="5.63569">
        <ele>484.6418457</ele>
        <time>2011-11-06T15:45:34Z</time>
      </trkpt>
      <trkpt lat="45.35872" lon="5.63576">
        <ele>483.6804199</ele>
        <time>2011-11-06T15:45:39Z</time>
      </trkpt>
      <trkpt lat="45.35875" lon="5.63582">
        <ele>484.6418457</ele>
        <time>2011-11-06T15:45:44Z</time>
      </trkpt>
      <trkpt lat="45.35879" lon="5.63589">
        <ele>483.6804199</ele>
        <time>2011-11-06T15:45:49Z</time>
      </trkpt>
      <trkpt lat="45.35883" lon="5.63596">
        <ele>484.6418457</ele>
        <time>2011-11-06T15:45:53Z</time>
      </trkpt>
      <trkpt lat="45.35889" lon="5.63606">
        <ele>485.1224365</ele>
        <time>2011-11-06T15:45:58Z</time>
      </trkpt>
      <trkpt lat="45.35891" lon="5.63615">
        <ele>487.5256348</ele>
        <time>2011-11-06T15:46:03Z</time>
      </trkpt>
      <trkpt lat="45.35896" lon="5.63623">
        <ele>489.4483643</ele>
        <time>2011-11-06T15:46:07Z</time>
      </trkpt>
      <trkpt lat="45.35901" lon="5.63632">
        <ele>490.8903809</ele>
        <time>2011-11-06T15:46:11Z</time>
      </trkpt>
      <trkpt lat="45.35901" lon="5.63634">
        <ele>490.40979</ele>
        <time>2011-11-06T15:46:12Z</time>
      </trkpt>
      <trkpt lat="45.35902" lon="5.6364">
        <ele>489.9290771</ele>
        <time>2011-11-06T15:46:15Z</time>
      </trkpt>
      <trkpt lat="45.35906" lon="5.63649">
        <ele>490.8903809</ele>
        <time>2011-11-06T15:46:19Z</time>
      </trkpt>
      <trkpt lat="45.35908" lon="5.63655">
        <ele>491.3709717</ele>
        <time>2011-11-06T15:46:22Z</time>
      </trkpt>
      <trkpt lat="45.35915" lon="5.6367">
        <ele>491.3709717</ele>
        <time>2011-11-06T15:46:29Z</time>
      </trkpt>
      <trkpt lat="45.35918" lon="5.63681">
        <ele>492.3323975</ele>
        <time>2011-11-06T15:46:33Z</time>
      </trkpt>
      <trkpt lat="45.35923" lon="5.63692">
        <ele>493.774292</ele>
        <time>2011-11-06T15:46:38Z</time>
      </trkpt>
      <trkpt lat="45.35928" lon="5.63706">
        <ele>493.2935791</ele>
        <time>2011-11-06T15:46:44Z</time>
      </trkpt>
      <trkpt lat="45.3593" lon="5.63715">
        <ele>494.2550049</ele>
        <time>2011-11-06T15:46:48Z</time>
      </trkpt>
      <trkpt lat="45.35931" lon="5.6372">
        <ele>494.7355957</ele>
        <time>2011-11-06T15:46:50Z</time>
      </trkpt>
      <trkpt lat="45.35941" lon="5.63741">
        <ele>497.6196289</ele>
        <time>2011-11-06T15:46:59Z</time>
      </trkpt>
      <trkpt lat="45.35943" lon="5.63754">
        <ele>499.0615234</ele>
        <time>2011-11-06T15:47:04Z</time>
      </trkpt>
      <trkpt lat="45.35947" lon="5.63767">
        <ele>501.4648438</ele>
        <time>2011-11-06T15:47:09Z</time>
      </trkpt>
      <trkpt lat="45.35949" lon="5.63776">
        <ele>502.9067383</ele>
        <time>2011-11-06T15:47:12Z</time>
      </trkpt>
      <trkpt lat="45.35955" lon="5.63788">
        <ele>506.7520752</ele>
        <time>2011-11-06T15:47:17Z</time>
      </trkpt>
      <trkpt lat="45.35957" lon="5.63796">
        <ele>508.6746826</ele>
        <time>2011-11-06T15:47:21Z</time>
      </trkpt>
      <trkpt lat="45.35951" lon="5.63806">
        <ele>507.713501</ele>
        <time>2011-11-06T15:47:25Z</time>
      </trkpt>
      <trkpt lat="45.35943" lon="5.63813">
        <ele>504.8294678</ele>
        <time>2011-11-06T15:47:29Z</time>
      </trkpt>
      <trkpt lat="45.35939" lon="5.63819">
        <ele>506.2714844</ele>
        <time>2011-11-06T15:47:32Z</time>
      </trkpt>
      <trkpt lat="45.35931" lon="5.63826">
        <ele>510.59729</ele>
        <time>2011-11-06T15:47:36Z</time>
      </trkpt>
      <trkpt lat="45.35929" lon="5.6383">
        <ele>513.0007324</ele>
        <time>2011-11-06T15:47:38Z</time>
      </trkpt>
      <trkpt lat="45.35924" lon="5.63835">
        <ele>512.5200195</ele>
        <time>2011-11-06T15:47:42Z</time>
      </trkpt>
      <trkpt lat="45.35919" lon="5.63839">
        <ele>513.9620361</ele>
        <time>2011-11-06T15:47:45Z</time>
      </trkpt>
      <trkpt lat="45.35909" lon="5.63837">
        <ele>512.0394287</ele>
        <time>2011-11-06T15:47:50Z</time>
      </trkpt>
      <trkpt lat="45.35907" lon="5.63836">
        <ele>511.5587158</ele>
        <time>2011-11-06T15:47:51Z</time>
      </trkpt>
      <trkpt lat="45.35896" lon="5.63831">
        <ele>513.4814453</ele>
        <time>2011-11-06T15:47:57Z</time>
      </trkpt>
      <trkpt lat="45.35894" lon="5.6383">
        <ele>513.9620361</ele>
        <time>2011-11-06T15:47:58Z</time>
      </trkpt>
      <trkpt lat="45.35882" lon="5.63825">
        <ele>511.5587158</ele>
        <time>2011-11-06T15:48:05Z</time>
      </trkpt>
      <trkpt lat="45.35878" lon="5.63822">
        <ele>509.1553955</ele>
        <time>2011-11-06T15:48:08Z</time>
      </trkpt>
      <trkpt lat="45.35865" lon="5.63822">
        <ele>507.713501</ele>
        <time>2011-11-06T15:48:15Z</time>
      </trkpt>
      <trkpt lat="45.35862" lon="5.63822">
        <ele>508.1940918</ele>
        <time>2011-11-06T15:48:16Z</time>
      </trkpt>
      <trkpt lat="45.35857" lon="5.63822">
        <ele>509.1553955</ele>
        <time>2011-11-06T15:48:19Z</time>
      </trkpt>
      <trkpt lat="45.3585" lon="5.63818">
        <ele>509.1553955</ele>
        <time>2011-11-06T15:48:23Z</time>
      </trkpt>
      <trkpt lat="45.35841" lon="5.63809">
        <ele>508.6746826</ele>
        <time>2011-11-06T15:48:28Z</time>
      </trkpt>
      <trkpt lat="45.35829" lon="5.63802">
        <ele>509.1553955</ele>
        <time>2011-11-06T15:48:34Z</time>
      </trkpt>
      <trkpt lat="45.35817" lon="5.63798">
        <ele>509.1553955</ele>
        <time>2011-11-06T15:48:40Z</time>
      </trkpt>
      <trkpt lat="45.35809" lon="5.63794">
        <ele>508.6746826</ele>
        <time>2011-11-06T15:48:44Z</time>
      </trkpt>
      <trkpt lat="45.35795" lon="5.63787">
        <ele>509.6361084</ele>
        <time>2011-11-06T15:48:51Z</time>
      </trkpt>
      <trkpt lat="45.35785" lon="5.63779">
        <ele>510.1166992</ele>
        <time>2011-11-06T15:48:56Z</time>
      </trkpt>
      <trkpt lat="45.35772" lon="5.63769">
        <ele>512.0394287</ele>
        <time>2011-11-06T15:49:03Z</time>
      </trkpt>
      <trkpt lat="45.35762" lon="5.63762">
        <ele>514.9233398</ele>
        <time>2011-11-06T15:49:08Z</time>
      </trkpt>
      <trkpt lat="45.35752" lon="5.63749">
        <ele>517.807251</ele>
        <time>2011-11-06T15:49:14Z</time>
      </trkpt>
      <trkpt lat="45.3575" lon="5.63747">
        <ele>518.2878418</ele>
        <time>2011-11-06T15:49:15Z</time>
      </trkpt>
      <trkpt lat="45.35744" lon="5.63739">
        <ele>518.7685547</ele>
        <time>2011-11-06T15:49:19Z</time>
      </trkpt>
      <trkpt lat="45.35733" lon="5.63727">
        <ele>519.7298584</ele>
        <time>2011-11-06T15:49:25Z</time>
      </trkpt>
      <trkpt lat="45.35725" lon="5.63716">
        <ele>520.6912842</ele>
        <time>2011-11-06T15:49:30Z</time>
      </trkpt>
      <trkpt lat="45.35715" lon="5.63707">
        <ele>519.2492676</ele>
        <time>2011-11-06T15:49:35Z</time>
      </trkpt>
      <trkpt lat="45.35704" lon="5.63695">
        <ele>517.807251</ele>
        <time>2011-11-06T15:49:41Z</time>
      </trkpt>
      <trkpt lat="45.35696" lon="5.63688">
        <ele>517.3266602</ele>
        <time>2011-11-06T15:49:45Z</time>
      </trkpt>
      <trkpt lat="45.35694" lon="5.63687">
        <ele>517.3266602</ele>
        <time>2011-11-06T15:49:46Z</time>
      </trkpt>
      <trkpt lat="45.35683" lon="5.63679">
        <ele>516.8459473</ele>
        <time>2011-11-06T15:49:51Z</time>
      </trkpt>
      <trkpt lat="45.3567" lon="5.63665">
        <ele>516.8459473</ele>
        <time>2011-11-06T15:49:58Z</time>
      </trkpt>
      <trkpt lat="45.3566" lon="5.6366">
        <ele>517.807251</ele>
        <time>2011-11-06T15:50:02Z</time>
      </trkpt>
      <trkpt lat="45.35654" lon="5.63656">
        <ele>516.8459473</ele>
        <time>2011-11-06T15:50:05Z</time>
      </trkpt>
      <trkpt lat="45.35644" lon="5.63653">
        <ele>517.3266602</ele>
        <time>2011-11-06T15:50:10Z</time>
      </trkpt>
      <trkpt lat="45.35639" lon="5.63651">
        <ele>515.4040527</ele>
        <time>2011-11-06T15:50:12Z</time>
      </trkpt>
      <trkpt lat="45.35631" lon="5.6365">
        <ele>515.4040527</ele>
        <time>2011-11-06T15:50:16Z</time>
      </trkpt>
      <trkpt lat="45.3562" lon="5.63644">
        <ele>515.8846436</ele>
        <time>2011-11-06T15:50:21Z</time>
      </trkpt>
      <trkpt lat="45.35604" lon="5.63639">
        <ele>517.3266602</ele>
        <time>2011-11-06T15:50:27Z</time>
      </trkpt>
      <trkpt lat="45.35594" lon="5.63637">
        <ele>517.807251</ele>
        <time>2011-11-06T15:50:31Z</time>
      </trkpt>
      <trkpt lat="45.35583" lon="5.63637">
        <ele>519.7298584</ele>
        <time>2011-11-06T15:50:35Z</time>
      </trkpt>
      <trkpt lat="45.35565" lon="5.63621">
        <ele>518.7685547</ele>
        <time>2011-11-06T15:50:42Z</time>
      </trkpt>
      <trkpt lat="45.35554" lon="5.63613">
        <ele>517.807251</ele>
        <time>2011-11-06T15:50:47Z</time>
      </trkpt>
      <trkpt lat="45.35543" lon="5.63605">
        <ele>515.4040527</ele>
        <time>2011-11-06T15:50:53Z</time>
      </trkpt>
      <trkpt lat="45.3553" lon="5.63592">
        <ele>520.2105713</ele>
        <time>2011-11-06T15:50:58Z</time>
      </trkpt>
      <trkpt lat="45.35518" lon="5.63583">
        <ele>523.0946045</ele>
        <time>2011-11-06T15:51:03Z</time>
      </trkpt>
      <trkpt lat="45.35506" lon="5.63579">
        <ele>521.1719971</ele>
        <time>2011-11-06T15:51:08Z</time>
      </trkpt>
      <trkpt lat="45.35495" lon="5.63572">
        <ele>523.0946045</ele>
        <time>2011-11-06T15:51:13Z</time>
      </trkpt>
      <trkpt lat="45.35483" lon="5.63564">
        <ele>524.0557861</ele>
        <time>2011-11-06T15:51:18Z</time>
      </trkpt>
      <trkpt lat="45.35469" lon="5.63555">
        <ele>523.0946045</ele>
        <time>2011-11-06T15:51:24Z</time>
      </trkpt>
      <trkpt lat="45.35457" lon="5.63548">
        <ele>521.6525879</ele>
        <time>2011-11-06T15:51:29Z</time>
      </trkpt>
      <trkpt lat="45.35453" lon="5.63546">
        <ele>521.6525879</ele>
        <time>2011-11-06T15:51:31Z</time>
      </trkpt>
      <trkpt lat="45.35438" lon="5.63549">
        <ele>521.6525879</ele>
        <time>2011-11-06T15:51:37Z</time>
      </trkpt>
      <trkpt lat="45.35433" lon="5.63551">
        <ele>524.536499</ele>
        <time>2011-11-06T15:51:39Z</time>
      </trkpt>
      <trkpt lat="45.35423" lon="5.6355">
        <ele>526.9398193</ele>
        <time>2011-11-06T15:51:44Z</time>
      </trkpt>
      <trkpt lat="45.35409" lon="5.63548">
        <ele>525.9783936</ele>
        <time>2011-11-06T15:51:50Z</time>
      </trkpt>
      <trkpt lat="45.35397" lon="5.63545">
        <ele>525.9783936</ele>
        <time>2011-11-06T15:51:55Z</time>
      </trkpt>
      <trkpt lat="45.35386" lon="5.63539">
        <ele>524.536499</ele>
        <time>2011-11-06T15:52:00Z</time>
      </trkpt>
      <trkpt lat="45.35375" lon="5.63532">
        <ele>525.9783936</ele>
        <time>2011-11-06T15:52:05Z</time>
      </trkpt>
      <trkpt lat="45.35363" lon="5.63519">
        <ele>526.4591064</ele>
        <time>2011-11-06T15:52:10Z</time>
      </trkpt>
      <trkpt lat="45.35353" lon="5.63507">
        <ele>527.901001</ele>
        <time>2011-11-06T15:52:15Z</time>
      </trkpt>
      <trkpt lat="45.35343" lon="5.63498">
        <ele>527.901001</ele>
        <time>2011-11-06T15:52:20Z</time>
      </trkpt>
      <trkpt lat="45.35332" lon="5.63494">
        <ele>531.2657471</ele>
        <time>2011-11-06T15:52:25Z</time>
      </trkpt>
      <trkpt lat="45.3532" lon="5.6349">
        <ele>532.7077637</ele>
        <time>2011-11-06T15:52:30Z</time>
      </trkpt>
      <trkpt lat="45.35309" lon="5.63485">
        <ele>532.7077637</ele>
        <time>2011-11-06T15:52:35Z</time>
      </trkpt>
      <trkpt lat="45.35294" lon="5.63481">
        <ele>531.7463379</ele>
        <time>2011-11-06T15:52:40Z</time>
      </trkpt>
      <trkpt lat="45.35282" lon="5.63477">
        <ele>533.6689453</ele>
        <time>2011-11-06T15:52:45Z</time>
      </trkpt>
      <trkpt lat="45.35273" lon="5.63474">
        <ele>532.7077637</ele>
        <time>2011-11-06T15:52:49Z</time>
      </trkpt>
      <trkpt lat="45.35258" lon="5.63466">
        <ele>529.8237305</ele>
        <time>2011-11-06T15:52:55Z</time>
      </trkpt>
      <trkpt lat="45.35253" lon="5.63465">
        <ele>529.8237305</ele>
        <time>2011-11-06T15:52:57Z</time>
      </trkpt>
      <trkpt lat="45.35237" lon="5.63454">
        <ele>527.901001</ele>
        <time>2011-11-06T15:53:03Z</time>
      </trkpt>
      <trkpt lat="45.35228" lon="5.63452">
        <ele>526.9398193</ele>
        <time>2011-11-06T15:53:07Z</time>
      </trkpt>
      <trkpt lat="45.35215" lon="5.63446">
        <ele>531.2657471</ele>
        <time>2011-11-06T15:53:12Z</time>
      </trkpt>
      <trkpt lat="45.35203" lon="5.63437">
        <ele>530.7851563</ele>
        <time>2011-11-06T15:53:17Z</time>
      </trkpt>
      <trkpt lat="45.35191" lon="5.63431">
        <ele>531.7463379</ele>
        <time>2011-11-06T15:53:22Z</time>
      </trkpt>
      <trkpt lat="45.35181" lon="5.63424">
        <ele>530.7851563</ele>
        <time>2011-11-06T15:53:26Z</time>
      </trkpt>
      <trkpt lat="45.3517" lon="5.63419">
        <ele>532.2270508</ele>
        <time>2011-11-06T15:53:31Z</time>
      </trkpt>
      <trkpt lat="45.35156" lon="5.63414">
        <ele>532.7077637</ele>
        <time>2011-11-06T15:53:36Z</time>
      </trkpt>
      <trkpt lat="45.35142" lon="5.63412">
        <ele>536.5531006</ele>
        <time>2011-11-06T15:53:41Z</time>
      </trkpt>
      <trkpt lat="45.35131" lon="5.6341">
        <ele>537.0336914</ele>
        <time>2011-11-06T15:53:45Z</time>
      </trkpt>
      <trkpt lat="45.35122" lon="5.63405">
        <ele>538.475708</ele>
        <time>2011-11-06T15:53:50Z</time>
      </trkpt>
      <trkpt lat="45.35112" lon="5.63394">
        <ele>538.9562988</ele>
        <time>2011-11-06T15:53:54Z</time>
      </trkpt>
      <trkpt lat="45.35103" lon="5.63391">
        <ele>540.3983154</ele>
        <time>2011-11-06T15:53:58Z</time>
      </trkpt>
      <trkpt lat="45.35094" lon="5.63385">
        <ele>541.3594971</ele>
        <time>2011-11-06T15:54:02Z</time>
      </trkpt>
      <trkpt lat="45.35083" lon="5.6337">
        <ele>541.84021</ele>
        <time>2011-11-06T15:54:07Z</time>
      </trkpt>
      <trkpt lat="45.35072" lon="5.63363">
        <ele>538.9562988</ele>
        <time>2011-11-06T15:54:12Z</time>
      </trkpt>
      <trkpt lat="45.35061" lon="5.6336">
        <ele>537.5142822</ele>
        <time>2011-11-06T15:54:17Z</time>
      </trkpt>
      <trkpt lat="45.35046" lon="5.63351">
        <ele>536.0723877</ele>
        <time>2011-11-06T15:54:23Z</time>
      </trkpt>
      <trkpt lat="45.35034" lon="5.63345">
        <ele>536.0723877</ele>
        <time>2011-11-06T15:54:28Z</time>
      </trkpt>
      <trkpt lat="45.35031" lon="5.63344">
        <ele>536.0723877</ele>
        <time>2011-11-06T15:54:29Z</time>
      </trkpt>
      <trkpt lat="45.35018" lon="5.6333">
        <ele>539.4368896</ele>
        <time>2011-11-06T15:54:35Z</time>
      </trkpt>
      <trkpt lat="45.35007" lon="5.63317">
        <ele>541.3594971</ele>
        <time>2011-11-06T15:54:40Z</time>
      </trkpt>
      <trkpt lat="45.35" lon="5.63309">
        <ele>542.3209229</ele>
        <time>2011-11-06T15:54:43Z</time>
      </trkpt>
      <trkpt lat="45.3499" lon="5.63297">
        <ele>543.2821045</ele>
        <time>2011-11-06T15:54:48Z</time>
      </trkpt>
      <trkpt lat="45.3498" lon="5.63289">
        <ele>542.8015137</ele>
        <time>2011-11-06T15:54:53Z</time>
      </trkpt>
      <trkpt lat="45.34969" lon="5.63282">
        <ele>545.204834</ele>
        <time>2011-11-06T15:54:57Z</time>
      </trkpt>
      <trkpt lat="45.34959" lon="5.63282">
        <ele>544.7242432</ele>
        <time>2011-11-06T15:55:01Z</time>
      </trkpt>
      <trkpt lat="45.34947" lon="5.63288">
        <ele>544.2436523</ele>
        <time>2011-11-06T15:55:06Z</time>
      </trkpt>
      <trkpt lat="45.34934" lon="5.63293">
        <ele>545.6855469</ele>
        <time>2011-11-06T15:55:11Z</time>
      </trkpt>
      <trkpt lat="45.34921" lon="5.63294">
        <ele>547.1274414</ele>
        <time>2011-11-06T15:55:16Z</time>
      </trkpt>
      <trkpt lat="45.34916" lon="5.63295">
        <ele>548.5693359</ele>
        <time>2011-11-06T15:55:18Z</time>
      </trkpt>
      <trkpt lat="45.349" lon="5.63298">
        <ele>551.4533691</ele>
        <time>2011-11-06T15:55:24Z</time>
      </trkpt>
      <trkpt lat="45.34888" lon="5.63299">
        <ele>553.3759766</ele>
        <time>2011-11-06T15:55:29Z</time>
      </trkpt>
      <trkpt lat="45.34871" lon="5.63298">
        <ele>550.4921875</ele>
        <time>2011-11-06T15:55:35Z</time>
      </trkpt>
      <trkpt lat="45.34858" lon="5.63303">
        <ele>552.4145508</ele>
        <time>2011-11-06T15:55:40Z</time>
      </trkpt>
      <trkpt lat="45.34842" lon="5.63311">
        <ele>558.1828613</ele>
        <time>2011-11-06T15:55:46Z</time>
      </trkpt>
      <trkpt lat="45.3483" lon="5.63311">
        <ele>556.2600098</ele>
        <time>2011-11-06T15:55:51Z</time>
      </trkpt>
      <trkpt lat="45.3482" lon="5.6331">
        <ele>554.3374023</ele>
        <time>2011-11-06T15:55:55Z</time>
      </trkpt>
      <trkpt lat="45.34812" lon="5.63303">
        <ele>553.3759766</ele>
        <time>2011-11-06T15:55:59Z</time>
      </trkpt>
      <trkpt lat="45.34805" lon="5.63307">
        <ele>554.3374023</ele>
        <time>2011-11-06T15:56:04Z</time>
      </trkpt>
      <trkpt lat="45.34792" lon="5.6331">
        <ele>552.8952637</ele>
        <time>2011-11-06T15:56:09Z</time>
      </trkpt>
      <trkpt lat="45.34783" lon="5.63311">
        <ele>550.4921875</ele>
        <time>2011-11-06T15:56:13Z</time>
      </trkpt>
      <trkpt lat="45.34774" lon="5.63316">
        <ele>549.5307617</ele>
        <time>2011-11-06T15:56:17Z</time>
      </trkpt>
      <trkpt lat="45.34762" lon="5.63321">
        <ele>552.4145508</ele>
        <time>2011-11-06T15:56:22Z</time>
      </trkpt>
      <trkpt lat="45.34748" lon="5.63325">
        <ele>554.8178711</ele>
        <time>2011-11-06T15:56:28Z</time>
      </trkpt>
      <trkpt lat="45.34736" lon="5.63332">
        <ele>560.5859375</ele>
        <time>2011-11-06T15:56:33Z</time>
      </trkpt>
      <trkpt lat="45.34729" lon="5.63336">
        <ele>562.5085449</ele>
        <time>2011-11-06T15:56:37Z</time>
      </trkpt>
      <trkpt lat="45.34725" lon="5.6334">
        <ele>562.9892578</ele>
        <time>2011-11-06T15:56:39Z</time>
      </trkpt>
      <trkpt lat="45.34716" lon="5.63344">
        <ele>562.0280762</ele>
        <time>2011-11-06T15:56:43Z</time>
      </trkpt>
      <trkpt lat="45.34703" lon="5.63349">
        <ele>562.9892578</ele>
        <time>2011-11-06T15:56:49Z</time>
      </trkpt>
      <trkpt lat="45.34696" lon="5.63349">
        <ele>563.4699707</ele>
        <time>2011-11-06T15:56:52Z</time>
      </trkpt>
      <trkpt lat="45.3468" lon="5.63359">
        <ele>565.3925781</ele>
        <time>2011-11-06T15:56:59Z</time>
      </trkpt>
      <trkpt lat="45.34663" lon="5.63367">
        <ele>566.8344727</ele>
        <time>2011-11-06T15:57:06Z</time>
      </trkpt>
      <trkpt lat="45.3465" lon="5.6337">
        <ele>569.237793</ele>
        <time>2011-11-06T15:57:11Z</time>
      </trkpt>
      <trkpt lat="45.34647" lon="5.63369">
        <ele>569.237793</ele>
        <time>2011-11-06T15:57:12Z</time>
      </trkpt>
      <trkpt lat="45.34639" lon="5.63369">
        <ele>565.3925781</ele>
        <time>2011-11-06T15:57:16Z</time>
      </trkpt>
      <trkpt lat="45.34627" lon="5.63374">
        <ele>563.9504395</ele>
        <time>2011-11-06T15:57:22Z</time>
      </trkpt>
      <trkpt lat="45.34619" lon="5.63379">
        <ele>562.9892578</ele>
        <time>2011-11-06T15:57:26Z</time>
      </trkpt>
      <trkpt lat="45.34612" lon="5.63386">
        <ele>562.9892578</ele>
        <time>2011-11-06T15:57:29Z</time>
      </trkpt>
      <trkpt lat="45.34603" lon="5.63394">
        <ele>559.6247559</ele>
        <time>2011-11-06T15:57:34Z</time>
      </trkpt>
      <trkpt lat="45.34595" lon="5.63404">
        <ele>559.6247559</ele>
        <time>2011-11-06T15:57:39Z</time>
      </trkpt>
      <trkpt lat="45.34593" lon="5.63407">
        <ele>559.6247559</ele>
        <time>2011-11-06T15:57:40Z</time>
      </trkpt>
      <trkpt lat="45.34594" lon="5.63426">
        <ele>552.8952637</ele>
        <time>2011-11-06T15:57:47Z</time>
      </trkpt>
      <trkpt lat="45.34594" lon="5.63432">
        <ele>551.934082</ele>
        <time>2011-11-06T15:57:49Z</time>
      </trkpt>
      <trkpt lat="45.34584" lon="5.63438">
        <ele>550.9726563</ele>
        <time>2011-11-06T15:57:54Z</time>
      </trkpt>
      <trkpt lat="45.34571" lon="5.63435">
        <ele>549.0500488</ele>
        <time>2011-11-06T15:57:59Z</time>
      </trkpt>
      <trkpt lat="45.34556" lon="5.63434">
        <ele>550.0114746</ele>
        <time>2011-11-06T15:58:06Z</time>
      </trkpt>
      <trkpt lat="45.34545" lon="5.63431">
        <ele>549.5307617</ele>
        <time>2011-11-06T15:58:11Z</time>
      </trkpt>
      <trkpt lat="45.34533" lon="5.63427">
        <ele>549.5307617</ele>
        <time>2011-11-06T15:58:16Z</time>
      </trkpt>
      <trkpt lat="45.34522" lon="5.63421">
        <ele>550.9726563</ele>
        <time>2011-11-06T15:58:22Z</time>
      </trkpt>
      <trkpt lat="45.34513" lon="5.63416">
        <ele>551.934082</ele>
        <time>2011-11-06T15:58:27Z</time>
      </trkpt>
      <trkpt lat="45.34502" lon="5.63411">
        <ele>554.3374023</ele>
        <time>2011-11-06T15:58:33Z</time>
      </trkpt>
      <trkpt lat="45.34496" lon="5.63411">
        <ele>555.7792969</ele>
        <time>2011-11-06T15:58:36Z</time>
      </trkpt>
      <trkpt lat="45.34485" lon="5.63411">
        <ele>557.7021484</ele>
        <time>2011-11-06T15:58:42Z</time>
      </trkpt>
      <trkpt lat="45.34481" lon="5.63411">
        <ele>558.1828613</ele>
        <time>2011-11-06T15:58:44Z</time>
      </trkpt>
      <trkpt lat="45.34473" lon="5.63409">
        <ele>561.0666504</ele>
        <time>2011-11-06T15:58:49Z</time>
      </trkpt>
      <trkpt lat="45.34463" lon="5.63405">
        <ele>563.4699707</ele>
        <time>2011-11-06T15:58:55Z</time>
      </trkpt>
      <trkpt lat="45.34456" lon="5.63405">
        <ele>566.8344727</ele>
        <time>2011-11-06T15:58:59Z</time>
      </trkpt>
      <trkpt lat="45.34451" lon="5.63402">
        <ele>568.2763672</ele>
        <time>2011-11-06T15:59:03Z</time>
      </trkpt>
      <trkpt lat="45.34438" lon="5.634">
        <ele>566.3537598</ele>
        <time>2011-11-06T15:59:09Z</time>
      </trkpt>
      <trkpt lat="45.34435" lon="5.63399">
        <ele>567.3151855</ele>
        <time>2011-11-06T15:59:11Z</time>
      </trkpt>
      <trkpt lat="45.34423" lon="5.63394">
        <ele>567.7956543</ele>
        <time>2011-11-06T15:59:17Z</time>
      </trkpt>
      <trkpt lat="45.34414" lon="5.63391">
        <ele>569.237793</ele>
        <time>2011-11-06T15:59:22Z</time>
      </trkpt>
      <trkpt lat="45.34405" lon="5.63386">
        <ele>570.6796875</ele>
        <time>2011-11-06T15:59:27Z</time>
      </trkpt>
      <trkpt lat="45.34395" lon="5.63384">
        <ele>572.1218262</ele>
        <time>2011-11-06T15:59:31Z</time>
      </trkpt>
      <trkpt lat="45.34384" lon="5.63385">
        <ele>571.1604004</ele>
        <time>2011-11-06T15:59:37Z</time>
      </trkpt>
      <trkpt lat="45.3438" lon="5.63383">
        <ele>568.7570801</ele>
        <time>2011-11-06T15:59:39Z</time>
      </trkpt>
      <trkpt lat="45.34369" lon="5.6338">
        <ele>567.3151855</ele>
        <time>2011-11-06T15:59:45Z</time>
      </trkpt>
      <trkpt lat="45.34359" lon="5.63378">
        <ele>567.3151855</ele>
        <time>2011-11-06T15:59:50Z</time>
      </trkpt>
      <trkpt lat="45.34358" lon="5.63378">
        <ele>567.7956543</ele>
        <time>2011-11-06T15:59:51Z</time>
      </trkpt>
      <trkpt lat="45.3435" lon="5.63375">
        <ele>569.237793</ele>
        <time>2011-11-06T15:59:56Z</time>
      </trkpt>
      <trkpt lat="45.34342" lon="5.63375">
        <ele>569.237793</ele>
        <time>2011-11-06T16:00:00Z</time>
      </trkpt>
      <trkpt lat="45.34333" lon="5.63376">
        <ele>571.6408691</ele>
        <time>2011-11-06T16:00:05Z</time>
      </trkpt>
      <trkpt lat="45.34326" lon="5.63376">
        <ele>574.5251465</ele>
        <time>2011-11-06T16:00:09Z</time>
      </trkpt>
      <trkpt lat="45.3432" lon="5.63374">
        <ele>572.6025391</ele>
        <time>2011-11-06T16:00:15Z</time>
      </trkpt>
      <trkpt lat="45.34315" lon="5.63375">
        <ele>573.083252</ele>
        <time>2011-11-06T16:00:17Z</time>
      </trkpt>
      <trkpt lat="45.34309" lon="5.63376">
        <ele>575.967041</ele>
        <time>2011-11-06T16:00:21Z</time>
      </trkpt>
      <trkpt lat="45.34299" lon="5.63375">
        <ele>577.8896484</ele>
        <time>2011-11-06T16:00:27Z</time>
      </trkpt>
      <trkpt lat="45.34294" lon="5.63374">
        <ele>579.331543</ele>
        <time>2011-11-06T16:00:30Z</time>
      </trkpt>
      <trkpt lat="45.34287" lon="5.63374">
        <ele>582.6962891</ele>
        <time>2011-11-06T16:00:34Z</time>
      </trkpt>
      <trkpt lat="45.34274" lon="5.63375">
        <ele>586.060791</ele>
        <time>2011-11-06T16:00:41Z</time>
      </trkpt>
      <trkpt lat="45.34272" lon="5.63374">
        <ele>586.060791</ele>
        <time>2011-11-06T16:00:42Z</time>
      </trkpt>
      <trkpt lat="45.3426" lon="5.63375">
        <ele>591.3481445</ele>
        <time>2011-11-06T16:00:49Z</time>
      </trkpt>
      <trkpt lat="45.3425" lon="5.6337">
        <ele>592.3095703</ele>
        <time>2011-11-06T16:00:53Z</time>
      </trkpt>
      <trkpt lat="45.34241" lon="5.63368">
        <ele>591.8288574</ele>
        <time>2011-11-06T16:00:57Z</time>
      </trkpt>
      <trkpt lat="45.34233" lon="5.63367">
        <ele>592.3095703</ele>
        <time>2011-11-06T16:01:01Z</time>
      </trkpt>
      <trkpt lat="45.34229" lon="5.63365">
        <ele>591.3481445</ele>
        <time>2011-11-06T16:01:04Z</time>
      </trkpt>
      <trkpt lat="45.34231" lon="5.63356">
        <ele>587.0219727</ele>
        <time>2011-11-06T16:01:09Z</time>
      </trkpt>
      <trkpt lat="45.34232" lon="5.63354">
        <ele>586.5415039</ele>
        <time>2011-11-06T16:01:10Z</time>
      </trkpt>
      <trkpt lat="45.34241" lon="5.63345">
        <ele>580.7736816</ele>
        <time>2011-11-06T16:01:16Z</time>
      </trkpt>
      <trkpt lat="45.34243" lon="5.63344">
        <ele>580.2929688</ele>
        <time>2011-11-06T16:01:17Z</time>
      </trkpt>
      <trkpt lat="45.34252" lon="5.63335">
        <ele>574.5251465</ele>
        <time>2011-11-06T16:01:23Z</time>
      </trkpt>
      <trkpt lat="45.34254" lon="5.63334">
        <ele>573.083252</ele>
        <time>2011-11-06T16:01:24Z</time>
      </trkpt>
      <trkpt lat="45.34262" lon="5.6333">
        <ele>570.6796875</ele>
        <time>2011-11-06T16:01:28Z</time>
      </trkpt>
      <trkpt lat="45.34266" lon="5.63324">
        <ele>566.3537598</ele>
        <time>2011-11-06T16:01:33Z</time>
      </trkpt>
      <trkpt lat="45.34266" lon="5.63322">
        <ele>566.3537598</ele>
        <time>2011-11-06T16:01:34Z</time>
      </trkpt>
      <trkpt lat="45.34269" lon="5.63317">
        <ele>563.4699707</ele>
        <time>2011-11-06T16:01:39Z</time>
      </trkpt>
      <trkpt lat="45.34272" lon="5.63309">
        <ele>560.1052246</ele>
        <time>2011-11-06T16:01:43Z</time>
      </trkpt>
      <trkpt lat="45.34275" lon="5.63301">
        <ele>556.2600098</ele>
        <time>2011-11-06T16:01:48Z</time>
      </trkpt>
      <trkpt lat="45.34275" lon="5.63296">
        <ele>556.7407227</ele>
        <time>2011-11-06T16:01:50Z</time>
      </trkpt>
      <trkpt lat="45.34278" lon="5.63283">
        <ele>551.934082</ele>
        <time>2011-11-06T16:01:56Z</time>
      </trkpt>
      <trkpt lat="45.34279" lon="5.63278">
        <ele>550.0114746</ele>
        <time>2011-11-06T16:01:58Z</time>
      </trkpt>
      <trkpt lat="45.34281" lon="5.63269">
        <ele>546.1662598</ele>
        <time>2011-11-06T16:02:02Z</time>
      </trkpt>
      <trkpt lat="45.3428" lon="5.63254">
        <ele>546.6468506</ele>
        <time>2011-11-06T16:02:07Z</time>
      </trkpt>
      <trkpt lat="45.34285" lon="5.63244">
        <ele>541.84021</ele>
        <time>2011-11-06T16:02:13Z</time>
      </trkpt>
      <trkpt lat="45.34287" lon="5.63237">
        <ele>538.9562988</ele>
        <time>2011-11-06T16:02:17Z</time>
      </trkpt>
      <trkpt lat="45.34288" lon="5.63235">
        <ele>537.5142822</ele>
        <time>2011-11-06T16:02:19Z</time>
      </trkpt>
      <trkpt lat="45.34289" lon="5.63232">
        <ele>536.5531006</ele>
        <time>2011-11-06T16:02:21Z</time>
      </trkpt>
      <trkpt lat="45.3429" lon="5.63214">
        <ele>541.84021</ele>
        <time>2011-11-06T16:02:27Z</time>
      </trkpt>
      <trkpt lat="45.34289" lon="5.63204">
        <ele>542.3209229</ele>
        <time>2011-11-06T16:02:31Z</time>
      </trkpt>
      <trkpt lat="45.34294" lon="5.6319">
        <ele>542.3209229</ele>
        <time>2011-11-06T16:02:36Z</time>
      </trkpt>
      <trkpt lat="45.34298" lon="5.6318">
        <ele>539.4368896</ele>
        <time>2011-11-06T16:02:40Z</time>
      </trkpt>
      <trkpt lat="45.34301" lon="5.63168">
        <ele>535.1109619</ele>
        <time>2011-11-06T16:02:47Z</time>
      </trkpt>
      <trkpt lat="45.343" lon="5.6316">
        <ele>536.5531006</ele>
        <time>2011-11-06T16:02:51Z</time>
      </trkpt>
      <trkpt lat="45.343" lon="5.63149">
        <ele>535.5915527</ele>
        <time>2011-11-06T16:02:55Z</time>
      </trkpt>
      <trkpt lat="45.34301" lon="5.63142">
        <ele>530.7851563</ele>
        <time>2011-11-06T16:03:01Z</time>
      </trkpt>
      <trkpt lat="45.34302" lon="5.63134">
        <ele>529.8237305</ele>
        <time>2011-11-06T16:03:05Z</time>
      </trkpt>
      <trkpt lat="45.343" lon="5.63127">
        <ele>529.8237305</ele>
        <time>2011-11-06T16:03:08Z</time>
      </trkpt>
      <trkpt lat="45.34301" lon="5.6312">
        <ele>528.8625488</ele>
        <time>2011-11-06T16:03:13Z</time>
      </trkpt>
      <trkpt lat="45.34303" lon="5.63115">
        <ele>527.4204102</ele>
        <time>2011-11-06T16:03:16Z</time>
      </trkpt>
      <trkpt lat="45.34302" lon="5.63106">
        <ele>524.536499</ele>
        <time>2011-11-06T16:03:22Z</time>
      </trkpt>
      <trkpt lat="45.34302" lon="5.63104">
        <ele>524.536499</ele>
        <time>2011-11-06T16:03:23Z</time>
      </trkpt>
      <trkpt lat="45.34299" lon="5.63094">
        <ele>522.6138916</ele>
        <time>2011-11-06T16:03:28Z</time>
      </trkpt>
      <trkpt lat="45.343" lon="5.63089">
        <ele>521.6525879</ele>
        <time>2011-11-06T16:03:30Z</time>
      </trkpt>
      <trkpt lat="45.34296" lon="5.63086">
        <ele>518.2878418</ele>
        <time>2011-11-06T16:03:35Z</time>
      </trkpt>
      <trkpt lat="45.34295" lon="5.63079">
        <ele>515.8846436</ele>
        <time>2011-11-06T16:03:41Z</time>
      </trkpt>
      <trkpt lat="45.34295" lon="5.63076">
        <ele>514.9233398</ele>
        <time>2011-11-06T16:03:47Z</time>
      </trkpt>
      <trkpt lat="45.34294" lon="5.63071">
        <ele>514.442627</ele>
        <time>2011-11-06T16:03:49Z</time>
      </trkpt>
      <trkpt lat="45.34293" lon="5.63062">
        <ele>513.4814453</ele>
        <time>2011-11-06T16:03:53Z</time>
      </trkpt>
      <trkpt lat="45.34291" lon="5.63058">
        <ele>512.5200195</ele>
        <time>2011-11-06T16:03:55Z</time>
      </trkpt>
      <trkpt lat="45.34288" lon="5.6305">
        <ele>512.0394287</ele>
        <time>2011-11-06T16:04:01Z</time>
      </trkpt>
      <trkpt lat="45.34287" lon="5.6304">
        <ele>510.1166992</ele>
        <time>2011-11-06T16:04:05Z</time>
      </trkpt>
      <trkpt lat="45.34288" lon="5.63033">
        <ele>507.2327881</ele>
        <time>2011-11-06T16:04:08Z</time>
      </trkpt>
      <trkpt lat="45.34288" lon="5.63022">
        <ele>508.1940918</ele>
        <time>2011-11-06T16:04:12Z</time>
      </trkpt>
      <trkpt lat="45.34287" lon="5.6302">
        <ele>507.713501</ele>
        <time>2011-11-06T16:04:14Z</time>
      </trkpt>
      <trkpt lat="45.34285" lon="5.6302">
        <ele>508.6746826</ele>
        <time>2011-11-06T16:04:16Z</time>
      </trkpt>
      <trkpt lat="45.34286" lon="5.63009">
        <ele>503.8681641</ele>
        <time>2011-11-06T16:04:21Z</time>
      </trkpt>
      <trkpt lat="45.34287" lon="5.63001">
        <ele>502.4261475</ele>
        <time>2011-11-06T16:04:24Z</time>
      </trkpt>
      <trkpt lat="45.34287" lon="5.62994">
        <ele>500.0229492</ele>
        <time>2011-11-06T16:04:27Z</time>
      </trkpt>
      <trkpt lat="45.34292" lon="5.62982">
        <ele>497.138916</ele>
        <time>2011-11-06T16:04:32Z</time>
      </trkpt>
      <trkpt lat="45.34296" lon="5.62976">
        <ele>496.1777344</ele>
        <time>2011-11-06T16:04:35Z</time>
      </trkpt>
      <trkpt lat="45.34294" lon="5.62969">
        <ele>496.1777344</ele>
        <time>2011-11-06T16:04:39Z</time>
      </trkpt>
      <trkpt lat="45.34294" lon="5.62959">
        <ele>495.6968994</ele>
        <time>2011-11-06T16:04:45Z</time>
      </trkpt>
      <trkpt lat="45.34293" lon="5.62953">
        <ele>494.7355957</ele>
        <time>2011-11-06T16:04:47Z</time>
      </trkpt>
      <trkpt lat="45.34291" lon="5.62948">
        <ele>492.3323975</ele>
        <time>2011-11-06T16:04:51Z</time>
      </trkpt>
      <trkpt lat="45.34284" lon="5.6294">
        <ele>491.8516846</ele>
        <time>2011-11-06T16:04:57Z</time>
      </trkpt>
      <trkpt lat="45.34277" lon="5.62939">
        <ele>490.8903809</ele>
        <time>2011-11-06T16:05:00Z</time>
      </trkpt>
      <trkpt lat="45.34271" lon="5.62933">
        <ele>489.4483643</ele>
        <time>2011-11-06T16:05:04Z</time>
      </trkpt>
      <trkpt lat="45.34269" lon="5.62924">
        <ele>486.5644531</ele>
        <time>2011-11-06T16:05:09Z</time>
      </trkpt>
      <trkpt lat="45.34267" lon="5.62915">
        <ele>486.5644531</ele>
        <time>2011-11-06T16:05:13Z</time>
      </trkpt>
      <trkpt lat="45.34266" lon="5.62913">
        <ele>485.1224365</ele>
        <time>2011-11-06T16:05:15Z</time>
      </trkpt>
      <trkpt lat="45.34264" lon="5.62907">
        <ele>481.2772217</ele>
        <time>2011-11-06T16:05:21Z</time>
      </trkpt>
      <trkpt lat="45.34261" lon="5.62904">
        <ele>479.3544922</ele>
        <time>2011-11-06T16:05:24Z</time>
      </trkpt>
      <trkpt lat="45.34255" lon="5.62894">
        <ele>477.4318848</ele>
        <time>2011-11-06T16:05:30Z</time>
      </trkpt>
      <trkpt lat="45.34253" lon="5.62888">
        <ele>476.4705811</ele>
        <time>2011-11-06T16:05:34Z</time>
      </trkpt>
      <trkpt lat="45.34251" lon="5.62885">
        <ele>474.5479736</ele>
        <time>2011-11-06T16:05:38Z</time>
      </trkpt>
      <trkpt lat="45.34254" lon="5.62876">
        <ele>471.1833496</ele>
        <time>2011-11-06T16:05:43Z</time>
      </trkpt>
      <trkpt lat="45.34254" lon="5.62873">
        <ele>470.7026367</ele>
        <time>2011-11-06T16:05:44Z</time>
      </trkpt>
      <trkpt lat="45.34257" lon="5.62859">
        <ele>466.8574219</ele>
        <time>2011-11-06T16:05:50Z</time>
      </trkpt>
      <trkpt lat="45.34259" lon="5.62853">
        <ele>464.9348145</ele>
        <time>2011-11-06T16:05:53Z</time>
      </trkpt>
      <trkpt lat="45.34258" lon="5.62845">
        <ele>464.9348145</ele>
        <time>2011-11-06T16:05:58Z</time>
      </trkpt>
      <trkpt lat="45.34257" lon="5.62843">
        <ele>463.9733887</ele>
        <time>2011-11-06T16:05:59Z</time>
      </trkpt>
      <trkpt lat="45.3425" lon="5.62836">
        <ele>463.9733887</ele>
        <time>2011-11-06T16:06:04Z</time>
      </trkpt>
      <trkpt lat="45.34239" lon="5.6284">
        <ele>464.4541016</ele>
        <time>2011-11-06T16:06:09Z</time>
      </trkpt>
      <trkpt lat="45.34231" lon="5.62843">
        <ele>461.5701904</ele>
        <time>2011-11-06T16:06:14Z</time>
      </trkpt>
      <trkpt lat="45.34225" lon="5.62851">
        <ele>458.6861572</ele>
        <time>2011-11-06T16:06:19Z</time>
      </trkpt>
      <trkpt lat="45.34223" lon="5.62853">
        <ele>456.7635498</ele>
        <time>2011-11-06T16:06:21Z</time>
      </trkpt>
      <trkpt lat="45.34216" lon="5.62855">
        <ele>451.4763184</ele>
        <time>2011-11-06T16:06:26Z</time>
      </trkpt>
      <trkpt lat="45.3421" lon="5.62852">
        <ele>448.5924072</ele>
        <time>2011-11-06T16:06:29Z</time>
      </trkpt>
      <trkpt lat="45.34209" lon="5.62847">
        <ele>444.7470703</ele>
        <time>2011-11-06T16:06:33Z</time>
      </trkpt>
      <trkpt lat="45.34206" lon="5.62832">
        <ele>443.3050537</ele>
        <time>2011-11-06T16:06:40Z</time>
      </trkpt>
      <trkpt lat="45.34204" lon="5.6283">
        <ele>444.2664795</ele>
        <time>2011-11-06T16:06:41Z</time>
      </trkpt>
      <trkpt lat="45.34198" lon="5.62819">
        <ele>443.3050537</ele>
        <time>2011-11-06T16:06:47Z</time>
      </trkpt>
      <trkpt lat="45.34191" lon="5.62811">
        <ele>440.9018555</ele>
        <time>2011-11-06T16:06:52Z</time>
      </trkpt>
      <trkpt lat="45.34188" lon="5.62805">
        <ele>438.4985352</ele>
        <time>2011-11-06T16:06:55Z</time>
      </trkpt>
      <trkpt lat="45.34179" lon="5.62793">
        <ele>435.1339111</ele>
        <time>2011-11-06T16:07:02Z</time>
      </trkpt>
      <trkpt lat="45.34172" lon="5.62783">
        <ele>432.7307129</ele>
        <time>2011-11-06T16:07:07Z</time>
      </trkpt>
      <trkpt lat="45.34165" lon="5.62773">
        <ele>432.25</ele>
        <time>2011-11-06T16:07:12Z</time>
      </trkpt>
      <trkpt lat="45.34163" lon="5.62768">
        <ele>429.8465576</ele>
        <time>2011-11-06T16:07:15Z</time>
      </trkpt>
      <trkpt lat="45.34164" lon="5.6276">
        <ele>425.0401611</ele>
        <time>2011-11-06T16:07:20Z</time>
      </trkpt>
      <trkpt lat="45.34166" lon="5.62757">
        <ele>424.0787354</ele>
        <time>2011-11-06T16:07:21Z</time>
      </trkpt>
      <trkpt lat="45.34157" lon="5.6275">
        <ele>422.6367188</ele>
        <time>2011-11-06T16:07:26Z</time>
      </trkpt>
      <trkpt lat="45.34147" lon="5.62753">
        <ele>421.675415</ele>
        <time>2011-11-06T16:07:30Z</time>
      </trkpt>
      <trkpt lat="45.34133" lon="5.62765">
        <ele>417.3496094</ele>
        <time>2011-11-06T16:07:37Z</time>
      </trkpt>
      <trkpt lat="45.34125" lon="5.62778">
        <ele>413.0235596</ele>
        <time>2011-11-06T16:07:42Z</time>
      </trkpt>
      <trkpt lat="45.34118" lon="5.62789">
        <ele>412.5428467</ele>
        <time>2011-11-06T16:07:46Z</time>
      </trkpt>
      <trkpt lat="45.34117" lon="5.62809">
        <ele>413.0235596</ele>
        <time>2011-11-06T16:07:51Z</time>
      </trkpt>
      <trkpt lat="45.34118" lon="5.62824">
        <ele>413.9848633</ele>
        <time>2011-11-06T16:07:55Z</time>
      </trkpt>
      <trkpt lat="45.34119" lon="5.62844">
        <ele>415.4268799</ele>
        <time>2011-11-06T16:08:00Z</time>
      </trkpt>
      <trkpt lat="45.34119" lon="5.62858">
        <ele>415.9074707</ele>
        <time>2011-11-06T16:08:04Z</time>
      </trkpt>
      <trkpt lat="45.34119" lon="5.62872">
        <ele>414.946167</ele>
        <time>2011-11-06T16:08:08Z</time>
      </trkpt>
      <trkpt lat="45.34115" lon="5.62883">
        <ele>414.946167</ele>
        <time>2011-11-06T16:08:13Z</time>
      </trkpt>
      <trkpt lat="45.34106" lon="5.62895">
        <ele>417.8302002</ele>
        <time>2011-11-06T16:08:18Z</time>
      </trkpt>
      <trkpt lat="45.34098" lon="5.62909">
        <ele>415.9074707</ele>
        <time>2011-11-06T16:08:23Z</time>
      </trkpt>
      <trkpt lat="45.34086" lon="5.62913">
        <ele>412.0622559</ele>
        <time>2011-11-06T16:08:29Z</time>
      </trkpt>
      <trkpt lat="45.34081" lon="5.62909">
        <ele>406.2943115</ele>
        <time>2011-11-06T16:08:33Z</time>
      </trkpt>
      <trkpt lat="45.34076" lon="5.62903">
        <ele>402.4490967</ele>
        <time>2011-11-06T16:08:37Z</time>
      </trkpt>
      <trkpt lat="45.34069" lon="5.62895">
        <ele>401.487793</ele>
        <time>2011-11-06T16:08:42Z</time>
      </trkpt>
      <trkpt lat="45.34062" lon="5.62887">
        <ele>401.487793</ele>
        <time>2011-11-06T16:08:47Z</time>
      </trkpt>
      <trkpt lat="45.34062" lon="5.62882">
        <ele>400.5264893</ele>
        <time>2011-11-06T16:08:49Z</time>
      </trkpt>
      <trkpt lat="45.34055" lon="5.62873">
        <ele>396.2005615</ele>
        <time>2011-11-06T16:08:54Z</time>
      </trkpt>
      <trkpt lat="45.34051" lon="5.62875">
        <ele>393.7972412</ele>
        <time>2011-11-06T16:08:56Z</time>
      </trkpt>
      <trkpt lat="45.34038" lon="5.62875">
        <ele>388.0292969</ele>
        <time>2011-11-06T16:09:01Z</time>
      </trkpt>
      <trkpt lat="45.34031" lon="5.62865">
        <ele>385.1453857</ele>
        <time>2011-11-06T16:09:05Z</time>
      </trkpt>
      <trkpt lat="45.3402" lon="5.62858">
        <ele>379.8580322</ele>
        <time>2011-11-06T16:09:10Z</time>
      </trkpt>
      <trkpt lat="45.34007" lon="5.62859">
        <ele>375.5321045</ele>
        <time>2011-11-06T16:09:15Z</time>
      </trkpt>
      <trkpt lat="45.33995" lon="5.62868">
        <ele>371.6868896</ele>
        <time>2011-11-06T16:09:21Z</time>
      </trkpt>
      <trkpt lat="45.33993" lon="5.6287">
        <ele>371.2062988</ele>
        <time>2011-11-06T16:09:22Z</time>
      </trkpt>
      <trkpt lat="45.33987" lon="5.62867">
        <ele>368.3222656</ele>
        <time>2011-11-06T16:09:26Z</time>
      </trkpt>
      <trkpt lat="45.33983" lon="5.62845">
        <ele>366.880249</ele>
        <time>2011-11-06T16:09:32Z</time>
      </trkpt>
      <trkpt lat="45.33984" lon="5.62834">
        <ele>364.9576416</ele>
        <time>2011-11-06T16:09:35Z</time>
      </trkpt>
      <trkpt lat="45.33982" lon="5.62818">
        <ele>362.0737305</ele>
        <time>2011-11-06T16:09:39Z</time>
      </trkpt>
      <trkpt lat="45.33979" lon="5.62799">
        <ele>359.6704102</ele>
        <time>2011-11-06T16:09:44Z</time>
      </trkpt>
      <trkpt lat="45.33982" lon="5.62783">
        <ele>358.7089844</ele>
        <time>2011-11-06T16:09:48Z</time>
      </trkpt>
      <trkpt lat="45.33991" lon="5.62762">
        <ele>356.3057861</ele>
        <time>2011-11-06T16:09:54Z</time>
      </trkpt>
      <trkpt lat="45.33999" lon="5.62745">
        <ele>354.8637695</ele>
        <time>2011-11-06T16:09:59Z</time>
      </trkpt>
      <trkpt lat="45.34005" lon="5.62725">
        <ele>354.3831787</ele>
        <time>2011-11-06T16:10:04Z</time>
      </trkpt>
      <trkpt lat="45.34006" lon="5.62721">
        <ele>354.8637695</ele>
        <time>2011-11-06T16:10:05Z</time>
      </trkpt>
      <trkpt lat="45.34009" lon="5.62692">
        <ele>356.786377</ele>
        <time>2011-11-06T16:10:13Z</time>
      </trkpt>
      <trkpt lat="45.34005" lon="5.6267">
        <ele>363.0350342</ele>
        <time>2011-11-06T16:10:18Z</time>
      </trkpt>
      <trkpt lat="45.34003" lon="5.62652">
        <ele>365.9189453</ele>
        <time>2011-11-06T16:10:22Z</time>
      </trkpt>
      <trkpt lat="45.34007" lon="5.62634">
        <ele>364.4769287</ele>
        <time>2011-11-06T16:10:27Z</time>
      </trkpt>
      <trkpt lat="45.34009" lon="5.62618">
        <ele>362.5543213</ele>
        <time>2011-11-06T16:10:32Z</time>
      </trkpt>
      <trkpt lat="45.34013" lon="5.62607">
        <ele>360.6317139</ele>
        <time>2011-11-06T16:10:36Z</time>
      </trkpt>
      <trkpt lat="45.34025" lon="5.62597">
        <ele>360.151123</ele>
        <time>2011-11-06T16:10:43Z</time>
      </trkpt>
      <trkpt lat="45.34038" lon="5.62595">
        <ele>359.1896973</ele>
        <time>2011-11-06T16:10:48Z</time>
      </trkpt>
      <trkpt lat="45.34049" lon="5.62592">
        <ele>358.7089844</ele>
        <time>2011-11-06T16:10:53Z</time>
      </trkpt>
      <trkpt lat="45.34056" lon="5.62591">
        <ele>359.6704102</ele>
        <time>2011-11-06T16:10:57Z</time>
      </trkpt>
      <trkpt lat="45.34065" lon="5.62587">
        <ele>361.5931396</ele>
        <time>2011-11-06T16:11:01Z</time>
      </trkpt>
      <trkpt lat="45.34076" lon="5.62579">
        <ele>365.9189453</ele>
        <time>2011-11-06T16:11:06Z</time>
      </trkpt>
      <trkpt lat="45.3409" lon="5.62572">
        <ele>371.2062988</ele>
        <time>2011-11-06T16:11:11Z</time>
      </trkpt>
      <trkpt lat="45.34104" lon="5.62569">
        <ele>367.8415527</ele>
        <time>2011-11-06T16:11:18Z</time>
      </trkpt>
      <trkpt lat="45.34114" lon="5.62564">
        <ele>366.880249</ele>
        <time>2011-11-06T16:11:23Z</time>
      </trkpt>
      <trkpt lat="45.34126" lon="5.62562">
        <ele>364.4769287</ele>
        <time>2011-11-06T16:11:28Z</time>
      </trkpt>
      <trkpt lat="45.34132" lon="5.6256">
        <ele>363.5157471</ele>
        <time>2011-11-06T16:11:31Z</time>
      </trkpt>
      <trkpt lat="45.34143" lon="5.62556">
        <ele>363.9963379</ele>
        <time>2011-11-06T16:11:36Z</time>
      </trkpt>
      <trkpt lat="45.34154" lon="5.6255">
        <ele>365.9189453</ele>
        <time>2011-11-06T16:11:41Z</time>
      </trkpt>
      <trkpt lat="45.34164" lon="5.62545">
        <ele>367.8415527</ele>
        <time>2011-11-06T16:11:45Z</time>
      </trkpt>
      <trkpt lat="45.34173" lon="5.62543">
        <ele>369.7642822</ele>
        <time>2011-11-06T16:11:49Z</time>
      </trkpt>
      <trkpt lat="45.34184" lon="5.62537">
        <ele>373.6094971</ele>
        <time>2011-11-06T16:11:54Z</time>
      </trkpt>
      <trkpt lat="45.34192" lon="5.62533">
        <ele>374.5708008</ele>
        <time>2011-11-06T16:11:58Z</time>
      </trkpt>
      <trkpt lat="45.34206" lon="5.62526">
        <ele>375.0515137</ele>
        <time>2011-11-06T16:12:04Z</time>
      </trkpt>
      <trkpt lat="45.34218" lon="5.62516">
        <ele>375.5321045</ele>
        <time>2011-11-06T16:12:09Z</time>
      </trkpt>
      <trkpt lat="45.34226" lon="5.6251">
        <ele>373.1289063</ele>
        <time>2011-11-06T16:12:13Z</time>
      </trkpt>
      <trkpt lat="45.3424" lon="5.62496">
        <ele>371.2062988</ele>
        <time>2011-11-06T16:12:20Z</time>
      </trkpt>
      <trkpt lat="45.34252" lon="5.62482">
        <ele>368.3222656</ele>
        <time>2011-11-06T16:12:26Z</time>
      </trkpt>
      <trkpt lat="45.34263" lon="5.6247">
        <ele>366.880249</ele>
        <time>2011-11-06T16:12:31Z</time>
      </trkpt>
      <trkpt lat="45.34276" lon="5.62459">
        <ele>365.4383545</ele>
        <time>2011-11-06T16:12:36Z</time>
      </trkpt>
      <trkpt lat="45.34289" lon="5.62448">
        <ele>363.0350342</ele>
        <time>2011-11-06T16:12:42Z</time>
      </trkpt>
      <trkpt lat="45.34293" lon="5.62444">
        <ele>363.0350342</ele>
        <time>2011-11-06T16:12:44Z</time>
      </trkpt>
      <trkpt lat="45.3431" lon="5.62427">
        <ele>363.0350342</ele>
        <time>2011-11-06T16:12:52Z</time>
      </trkpt>
      <trkpt lat="45.34323" lon="5.62414">
        <ele>363.9963379</ele>
        <time>2011-11-06T16:12:58Z</time>
      </trkpt>
      <trkpt lat="45.34334" lon="5.62407">
        <ele>366.880249</ele>
        <time>2011-11-06T16:13:03Z</time>
      </trkpt>
      <trkpt lat="45.34348" lon="5.62398">
        <ele>369.2836914</ele>
        <time>2011-11-06T16:13:09Z</time>
      </trkpt>
      <trkpt lat="45.34354" lon="5.62394">
        <ele>369.2836914</ele>
        <time>2011-11-06T16:13:12Z</time>
      </trkpt>
      <trkpt lat="45.34367" lon="5.6239">
        <ele>371.2062988</ele>
        <time>2011-11-06T16:13:17Z</time>
      </trkpt>
      <trkpt lat="45.34377" lon="5.62382">
        <ele>372.1674805</ele>
        <time>2011-11-06T16:13:22Z</time>
      </trkpt>
      <trkpt lat="45.34386" lon="5.62375">
        <ele>374.0900879</ele>
        <time>2011-11-06T16:13:27Z</time>
      </trkpt>
      <trkpt lat="45.34397" lon="5.62369">
        <ele>374.5708008</ele>
        <time>2011-11-06T16:13:32Z</time>
      </trkpt>
      <trkpt lat="45.34405" lon="5.62365">
        <ele>375.5321045</ele>
        <time>2011-11-06T16:13:36Z</time>
      </trkpt>
      <trkpt lat="45.34422" lon="5.62357">
        <ele>381.7806396</ele>
        <time>2011-11-06T16:13:43Z</time>
      </trkpt>
      <trkpt lat="45.34431" lon="5.62351">
        <ele>384.184082</ele>
        <time>2011-11-06T16:13:48Z</time>
      </trkpt>
      <trkpt lat="45.34432" lon="5.6235">
        <ele>383.7032471</ele>
        <time>2011-11-06T16:13:49Z</time>
      </trkpt>
      <trkpt lat="45.3444" lon="5.62343">
        <ele>386.1066895</ele>
        <time>2011-11-06T16:13:54Z</time>
      </trkpt>
      <trkpt lat="45.34447" lon="5.62341">
        <ele>387.0679932</ele>
        <time>2011-11-06T16:13:58Z</time>
      </trkpt>
      <trkpt lat="45.34455" lon="5.62341">
        <ele>388.0292969</ele>
        <time>2011-11-06T16:14:03Z</time>
      </trkpt>
      <trkpt lat="45.34464" lon="5.62336">
        <ele>388.5100098</ele>
        <time>2011-11-06T16:14:08Z</time>
      </trkpt>
      <trkpt lat="45.34472" lon="5.62332">
        <ele>389.4711914</ele>
        <time>2011-11-06T16:14:13Z</time>
      </trkpt>
      <trkpt lat="45.34476" lon="5.62329">
        <ele>389.9519043</ele>
        <time>2011-11-06T16:14:16Z</time>
      </trkpt>
      <trkpt lat="45.34485" lon="5.62327">
        <ele>390.913208</ele>
        <time>2011-11-06T16:14:21Z</time>
      </trkpt>
      <trkpt lat="45.34487" lon="5.62327">
        <ele>390.4326172</ele>
        <time>2011-11-06T16:14:22Z</time>
      </trkpt>
      <trkpt lat="45.345" lon="5.62329">
        <ele>388.9906006</ele>
        <time>2011-11-06T16:14:29Z</time>
      </trkpt>
      <trkpt lat="45.34505" lon="5.62332">
        <ele>388.5100098</ele>
        <time>2011-11-06T16:14:33Z</time>
      </trkpt>
      <trkpt lat="45.34515" lon="5.62334">
        <ele>389.9519043</ele>
        <time>2011-11-06T16:14:38Z</time>
      </trkpt>
      <trkpt lat="45.34519" lon="5.62335">
        <ele>389.9519043</ele>
        <time>2011-11-06T16:14:40Z</time>
      </trkpt>
      <trkpt lat="45.3453" lon="5.62338">
        <ele>390.4326172</ele>
        <time>2011-11-06T16:14:46Z</time>
      </trkpt>
      <trkpt lat="45.34542" lon="5.6234">
        <ele>392.8359375</ele>
        <time>2011-11-06T16:14:51Z</time>
      </trkpt>
      <trkpt lat="45.34544" lon="5.62339">
        <ele>392.8359375</ele>
        <time>2011-11-06T16:14:52Z</time>
      </trkpt>
      <trkpt lat="45.34555" lon="5.6234">
        <ele>395.7198486</ele>
        <time>2011-11-06T16:14:58Z</time>
      </trkpt>
      <trkpt lat="45.34562" lon="5.62341">
        <ele>396.6811523</ele>
        <time>2011-11-06T16:15:02Z</time>
      </trkpt>
      <trkpt lat="45.34571" lon="5.62342">
        <ele>398.6037598</ele>
        <time>2011-11-06T16:15:06Z</time>
      </trkpt>
      <trkpt lat="45.34583" lon="5.62346">
        <ele>401.0070801</ele>
        <time>2011-11-06T16:15:13Z</time>
      </trkpt>
      <trkpt lat="45.34591" lon="5.62353">
        <ele>400.0458984</ele>
        <time>2011-11-06T16:15:18Z</time>
      </trkpt>
      <trkpt lat="45.34598" lon="5.62364">
        <ele>397.6424561</ele>
        <time>2011-11-06T16:15:23Z</time>
      </trkpt>
      <trkpt lat="45.34604" lon="5.62377">
        <ele>394.7585449</ele>
        <time>2011-11-06T16:15:29Z</time>
      </trkpt>
      <trkpt lat="45.34605" lon="5.62376">
        <ele>395.7198486</ele>
        <time>2011-11-06T16:15:31Z</time>
      </trkpt>
      <trkpt lat="45.346" lon="5.62369">
        <ele>394.2779541</ele>
        <time>2011-11-06T16:15:36Z</time>
      </trkpt>
      <trkpt lat="45.3459" lon="5.6236">
        <ele>392.3553467</ele>
        <time>2011-11-06T16:15:42Z</time>
      </trkpt>
      <trkpt lat="45.34577" lon="5.62353">
        <ele>389.9519043</ele>
        <time>2011-11-06T16:15:48Z</time>
      </trkpt>
      <trkpt lat="45.34575" lon="5.62352">
        <ele>389.9519043</ele>
        <time>2011-11-06T16:15:49Z</time>
      </trkpt>
      <trkpt lat="45.34561" lon="5.62351">
        <ele>387.548584</ele>
        <time>2011-11-06T16:15:55Z</time>
      </trkpt>
      <trkpt lat="45.34548" lon="5.62342">
        <ele>388.5100098</ele>
        <time>2011-11-06T16:16:00Z</time>
      </trkpt>
      <trkpt lat="45.3453" lon="5.62334">
        <ele>389.9519043</ele>
        <time>2011-11-06T16:16:06Z</time>
      </trkpt>
      <trkpt lat="45.34527" lon="5.62333">
        <ele>390.913208</ele>
        <time>2011-11-06T16:16:07Z</time>
      </trkpt>
      <trkpt lat="45.34514" lon="5.62332">
        <ele>390.4326172</ele>
        <time>2011-11-06T16:16:12Z</time>
      </trkpt>
      <trkpt lat="45.34498" lon="5.62337">
        <ele>388.5100098</ele>
        <time>2011-11-06T16:16:19Z</time>
      </trkpt>
      <trkpt lat="45.34483" lon="5.62338">
        <ele>386.1066895</ele>
        <time>2011-11-06T16:16:24Z</time>
      </trkpt>
      <trkpt lat="45.34466" lon="5.62338">
        <ele>383.2226563</ele>
        <time>2011-11-06T16:16:30Z</time>
      </trkpt>
      <trkpt lat="45.34453" lon="5.62344">
        <ele>381.7806396</ele>
        <time>2011-11-06T16:16:35Z</time>
      </trkpt>
      <trkpt lat="45.34441" lon="5.6235">
        <ele>379.8580322</ele>
        <time>2011-11-06T16:16:40Z</time>
      </trkpt>
      <trkpt lat="45.3443" lon="5.62356">
        <ele>375.0515137</ele>
        <time>2011-11-06T16:16:45Z</time>
      </trkpt>
      <trkpt lat="45.3442" lon="5.62362">
        <ele>371.6868896</ele>
        <time>2011-11-06T16:16:50Z</time>
      </trkpt>
      <trkpt lat="45.34407" lon="5.62367">
        <ele>368.3222656</ele>
        <time>2011-11-06T16:16:55Z</time>
      </trkpt>
      <trkpt lat="45.34398" lon="5.62374">
        <ele>365.4383545</ele>
        <time>2011-11-06T16:16:59Z</time>
      </trkpt>
      <trkpt lat="45.34393" lon="5.62377">
        <ele>364.4769287</ele>
        <time>2011-11-06T16:17:01Z</time>
      </trkpt>
      <trkpt lat="45.34391" lon="5.62379">
        <ele>363.9963379</ele>
        <time>2011-11-06T16:17:02Z</time>
      </trkpt>
      <trkpt lat="45.34386" lon="5.62381">
        <ele>363.9963379</ele>
        <time>2011-11-06T16:17:04Z</time>
      </trkpt>
      <trkpt lat="45.34375" lon="5.6239">
        <ele>362.0737305</ele>
        <time>2011-11-06T16:17:09Z</time>
      </trkpt>
      <trkpt lat="45.34361" lon="5.62403">
        <ele>361.5931396</ele>
        <time>2011-11-06T16:17:15Z</time>
      </trkpt>
      <trkpt lat="45.34356" lon="5.62405">
        <ele>360.6317139</ele>
        <time>2011-11-06T16:17:17Z</time>
      </trkpt>
      <trkpt lat="45.34336" lon="5.6241">
        <ele>360.6317139</ele>
        <time>2011-11-06T16:17:24Z</time>
      </trkpt>
      <trkpt lat="45.34316" lon="5.62414">
        <ele>364.4769287</ele>
        <time>2011-11-06T16:17:30Z</time>
      </trkpt>
      <trkpt lat="45.34306" lon="5.62421">
        <ele>365.4383545</ele>
        <time>2011-11-06T16:17:34Z</time>
      </trkpt>
      <trkpt lat="45.34296" lon="5.62425">
        <ele>363.9963379</ele>
        <time>2011-11-06T16:17:38Z</time>
      </trkpt>
      <trkpt lat="45.34288" lon="5.6243">
        <ele>360.151123</ele>
        <time>2011-11-06T16:17:42Z</time>
      </trkpt>
      <trkpt lat="45.34278" lon="5.62435">
        <ele>354.3831787</ele>
        <time>2011-11-06T16:17:47Z</time>
      </trkpt>
      <trkpt lat="45.3427" lon="5.62437">
        <ele>352.9411621</ele>
        <time>2011-11-06T16:17:50Z</time>
      </trkpt>
      <trkpt lat="45.34262" lon="5.6244">
        <ele>348.1346436</ele>
        <time>2011-11-06T16:17:54Z</time>
      </trkpt>
      <trkpt lat="45.34247" lon="5.6244">
        <ele>341.8859863</ele>
        <time>2011-11-06T16:18:00Z</time>
      </trkpt>
      <trkpt lat="45.34234" lon="5.62437">
        <ele>340.4440918</ele>
        <time>2011-11-06T16:18:05Z</time>
      </trkpt>
      <trkpt lat="45.34226" lon="5.62433">
        <ele>340.4440918</ele>
        <time>2011-11-06T16:18:08Z</time>
      </trkpt>
      <trkpt lat="45.34218" lon="5.62422">
        <ele>339.9633789</ele>
        <time>2011-11-06T16:18:11Z</time>
      </trkpt>
      <trkpt lat="45.34203" lon="5.62411">
        <ele>337.0794678</ele>
        <time>2011-11-06T16:18:16Z</time>
      </trkpt>
      <trkpt lat="45.34189" lon="5.62402">
        <ele>335.1567383</ele>
        <time>2011-11-06T16:18:21Z</time>
      </trkpt>
      <trkpt lat="45.34175" lon="5.62396">
        <ele>332.2728271</ele>
        <time>2011-11-06T16:18:27Z</time>
      </trkpt>
      <trkpt lat="45.34163" lon="5.62391">
        <ele>330.3502197</ele>
        <time>2011-11-06T16:18:31Z</time>
      </trkpt>
      <trkpt lat="45.34161" lon="5.62391">
        <ele>329.8695068</ele>
        <time>2011-11-06T16:18:32Z</time>
      </trkpt>
      <trkpt lat="45.34154" lon="5.62395">
        <ele>329.388916</ele>
        <time>2011-11-06T16:18:36Z</time>
      </trkpt>
      <trkpt lat="45.34148" lon="5.62404">
        <ele>330.8309326</ele>
        <time>2011-11-06T16:18:41Z</time>
      </trkpt>
      <trkpt lat="45.34131" lon="5.62409">
        <ele>331.7921143</ele>
        <time>2011-11-06T16:18:48Z</time>
      </trkpt>
      <trkpt lat="45.34127" lon="5.624">
        <ele>332.2728271</ele>
        <time>2011-11-06T16:18:52Z</time>
      </trkpt>
    </trkseg>
  </trk>
</gpx>